<?xml version="1.0" encoding="UTF-8" standalone="no" ?>
<gpx xmlns="http://www.topografix.com/GPX/1/1" xmlns:xsi="http://www.w3.org/2001/XMLSchema-instance" xsi:schemaLocation="http://www.topografix.com/GPX/1/1 http://www.topografix.com/GPX/1/1/gpx.xsd" version="1.1" creator="VisuGPX - https://www.visugpx.com">
  <metadata>
    <name>Essai2</name>
  </metadata>
  <trk>
    <name><![CDATA[Tracé actuel: 03 DEC 2020 08:48]]></name>
    <trkseg>
      <trkpt lat="44.69752" lon="5.09769">
        <ele>254.89</ele>
        <time>2020-12-03T07:48:15Z</time>
      </trkpt>
      <trkpt lat="44.69733" lon="5.09773">
        <ele>244.79</ele>
        <time>2020-12-03T07:48:34Z</time>
      </trkpt>
      <trkpt lat="44.69712" lon="5.09775">
        <ele>241.43</ele>
        <time>2020-12-03T07:48:51Z</time>
      </trkpt>
      <trkpt lat="44.69709" lon="5.09777">
        <ele>241.43</ele>
        <time>2020-12-03T07:48:53Z</time>
      </trkpt>
      <trkpt lat="44.69688" lon="5.09782">
        <ele>241.43</ele>
        <time>2020-12-03T07:49:08Z</time>
      </trkpt>
      <trkpt lat="44.6967" lon="5.09789">
        <ele>241.91</ele>
        <time>2020-12-03T07:49:21Z</time>
      </trkpt>
      <trkpt lat="44.69648" lon="5.09799">
        <ele>243.83</ele>
        <time>2020-12-03T07:49:36Z</time>
      </trkpt>
      <trkpt lat="44.69627" lon="5.09806">
        <ele>243.83</ele>
        <time>2020-12-03T07:49:53Z</time>
      </trkpt>
      <trkpt lat="44.69604" lon="5.09812">
        <ele>246.23</ele>
        <time>2020-12-03T07:50:09Z</time>
      </trkpt>
      <trkpt lat="44.69585" lon="5.0982">
        <ele>247.2</ele>
        <time>2020-12-03T07:50:23Z</time>
      </trkpt>
      <trkpt lat="44.6957" lon="5.09824">
        <ele>249.12</ele>
        <time>2020-12-03T07:50:34Z</time>
      </trkpt>
      <trkpt lat="44.69566" lon="5.09826">
        <ele>250.08</ele>
        <time>2020-12-03T07:50:48Z</time>
      </trkpt>
      <trkpt lat="44.69551" lon="5.09831">
        <ele>244.31</ele>
        <time>2020-12-03T07:51:01Z</time>
      </trkpt>
      <trkpt lat="44.69545" lon="5.09833">
        <ele>243.83</ele>
        <time>2020-12-03T07:51:05Z</time>
      </trkpt>
      <trkpt lat="44.6954" lon="5.09835">
        <ele>243.83</ele>
        <time>2020-12-03T07:51:09Z</time>
      </trkpt>
      <trkpt lat="44.69537" lon="5.09835">
        <ele>242.87</ele>
        <time>2020-12-03T07:51:11Z</time>
      </trkpt>
      <trkpt lat="44.6952" lon="5.09838">
        <ele>242.39</ele>
        <time>2020-12-03T07:51:22Z</time>
      </trkpt>
      <trkpt lat="44.69515" lon="5.09839">
        <ele>241.91</ele>
        <time>2020-12-03T07:51:25Z</time>
      </trkpt>
      <trkpt lat="44.69511" lon="5.09841">
        <ele>241.91</ele>
        <time>2020-12-03T07:51:28Z</time>
      </trkpt>
      <trkpt lat="44.69504" lon="5.09845">
        <ele>242.87</ele>
        <time>2020-12-03T07:51:33Z</time>
      </trkpt>
      <trkpt lat="44.69488" lon="5.09849">
        <ele>243.83</ele>
        <time>2020-12-03T07:51:44Z</time>
      </trkpt>
      <trkpt lat="44.69465" lon="5.09854">
        <ele>244.79</ele>
        <time>2020-12-03T07:52:00Z</time>
      </trkpt>
      <trkpt lat="44.69437" lon="5.09854">
        <ele>244.31</ele>
        <time>2020-12-03T07:52:19Z</time>
      </trkpt>
      <trkpt lat="44.69407" lon="5.09848">
        <ele>244.31</ele>
        <time>2020-12-03T07:52:39Z</time>
      </trkpt>
      <trkpt lat="44.69376" lon="5.09854">
        <ele>245.75</ele>
        <time>2020-12-03T07:53:00Z</time>
      </trkpt>
      <trkpt lat="44.69357" lon="5.09866">
        <ele>248.16</ele>
        <time>2020-12-03T07:53:14Z</time>
      </trkpt>
      <trkpt lat="44.6934" lon="5.09877">
        <ele>250.56</ele>
        <time>2020-12-03T07:53:28Z</time>
      </trkpt>
      <trkpt lat="44.69315" lon="5.0989">
        <ele>252.48</ele>
        <time>2020-12-03T07:53:44Z</time>
      </trkpt>
      <trkpt lat="44.69292" lon="5.099">
        <ele>253.93</ele>
        <time>2020-12-03T07:54:04Z</time>
      </trkpt>
      <trkpt lat="44.69261" lon="5.09906">
        <ele>257.77</ele>
        <time>2020-12-03T07:54:22Z</time>
      </trkpt>
      <trkpt lat="44.69237" lon="5.09911">
        <ele>257.77</ele>
        <time>2020-12-03T07:54:41Z</time>
      </trkpt>
      <trkpt lat="44.6922" lon="5.09913">
        <ele>257.29</ele>
        <time>2020-12-03T07:54:50Z</time>
      </trkpt>
      <trkpt lat="44.692" lon="5.09925">
        <ele>258.73</ele>
        <time>2020-12-03T07:55:06Z</time>
      </trkpt>
      <trkpt lat="44.69177" lon="5.09935">
        <ele>264.02</ele>
        <time>2020-12-03T07:55:23Z</time>
      </trkpt>
      <trkpt lat="44.69155" lon="5.09938">
        <ele>265.46</ele>
        <time>2020-12-03T07:55:40Z</time>
      </trkpt>
      <trkpt lat="44.69133" lon="5.09941">
        <ele>265.46</ele>
        <time>2020-12-03T07:55:54Z</time>
      </trkpt>
      <trkpt lat="44.69114" lon="5.09944">
        <ele>265.46</ele>
        <time>2020-12-03T07:56:07Z</time>
      </trkpt>
      <trkpt lat="44.69089" lon="5.09947">
        <ele>269.79</ele>
        <time>2020-12-03T07:56:25Z</time>
      </trkpt>
      <trkpt lat="44.69067" lon="5.09951">
        <ele>272.19</ele>
        <time>2020-12-03T07:56:41Z</time>
      </trkpt>
      <trkpt lat="44.69048" lon="5.09955">
        <ele>272.19</ele>
        <time>2020-12-03T07:56:53Z</time>
      </trkpt>
      <trkpt lat="44.69019" lon="5.09952">
        <ele>271.71</ele>
        <time>2020-12-03T07:57:13Z</time>
      </trkpt>
      <trkpt lat="44.68996" lon="5.09956">
        <ele>271.23</ele>
        <time>2020-12-03T07:57:29Z</time>
      </trkpt>
      <trkpt lat="44.68973" lon="5.0996">
        <ele>270.75</ele>
        <time>2020-12-03T07:57:47Z</time>
      </trkpt>
      <trkpt lat="44.6895" lon="5.09965">
        <ele>273.15</ele>
        <time>2020-12-03T07:58:05Z</time>
      </trkpt>
      <trkpt lat="44.68925" lon="5.09973">
        <ele>276.52</ele>
        <time>2020-12-03T07:58:23Z</time>
      </trkpt>
      <trkpt lat="44.68905" lon="5.09975">
        <ele>277.96</ele>
        <time>2020-12-03T07:58:38Z</time>
      </trkpt>
      <trkpt lat="44.68885" lon="5.09977">
        <ele>280.84</ele>
        <time>2020-12-03T07:58:53Z</time>
      </trkpt>
      <trkpt lat="44.68865" lon="5.09981">
        <ele>286.61</ele>
        <time>2020-12-03T07:59:07Z</time>
      </trkpt>
      <trkpt lat="44.68842" lon="5.09987">
        <ele>287.57</ele>
        <time>2020-12-03T07:59:24Z</time>
      </trkpt>
      <trkpt lat="44.68818" lon="5.09994">
        <ele>288.53</ele>
        <time>2020-12-03T07:59:41Z</time>
      </trkpt>
      <trkpt lat="44.68789" lon="5.10001">
        <ele>286.61</ele>
        <time>2020-12-03T07:59:57Z</time>
      </trkpt>
      <trkpt lat="44.68767" lon="5.10008">
        <ele>285.17</ele>
        <time>2020-12-03T08:00:14Z</time>
      </trkpt>
      <trkpt lat="44.68743" lon="5.10012">
        <ele>284.69</ele>
        <time>2020-12-03T08:00:33Z</time>
      </trkpt>
      <trkpt lat="44.68739" lon="5.10014">
        <ele>284.69</ele>
        <time>2020-12-03T08:00:36Z</time>
      </trkpt>
      <trkpt lat="44.68715" lon="5.10022">
        <ele>284.21</ele>
        <time>2020-12-03T08:00:52Z</time>
      </trkpt>
      <trkpt lat="44.68695" lon="5.10029">
        <ele>281.32</ele>
        <time>2020-12-03T08:01:05Z</time>
      </trkpt>
      <trkpt lat="44.68674" lon="5.10038">
        <ele>282.77</ele>
        <time>2020-12-03T08:01:21Z</time>
      </trkpt>
      <trkpt lat="44.68651" lon="5.10046">
        <ele>285.17</ele>
        <time>2020-12-03T08:01:38Z</time>
      </trkpt>
      <trkpt lat="44.68634" lon="5.10053">
        <ele>287.09</ele>
        <time>2020-12-03T08:01:52Z</time>
      </trkpt>
      <trkpt lat="44.68615" lon="5.1006">
        <ele>289.49</ele>
        <time>2020-12-03T08:02:07Z</time>
      </trkpt>
      <trkpt lat="44.686" lon="5.10069">
        <ele>290.94</ele>
        <time>2020-12-03T08:02:20Z</time>
      </trkpt>
      <trkpt lat="44.68592" lon="5.10071">
        <ele>290.46</ele>
        <time>2020-12-03T08:02:26Z</time>
      </trkpt>
      <trkpt lat="44.68587" lon="5.10075">
        <ele>290.46</ele>
        <time>2020-12-03T08:02:31Z</time>
      </trkpt>
      <trkpt lat="44.68567" lon="5.1009">
        <ele>290.46</ele>
        <time>2020-12-03T08:02:46Z</time>
      </trkpt>
      <trkpt lat="44.68548" lon="5.10102">
        <ele>292.86</ele>
        <time>2020-12-03T08:03:02Z</time>
      </trkpt>
      <trkpt lat="44.6853" lon="5.10111">
        <ele>298.15</ele>
        <time>2020-12-03T08:03:17Z</time>
      </trkpt>
      <trkpt lat="44.68514" lon="5.1012">
        <ele>301.99</ele>
        <time>2020-12-03T08:03:29Z</time>
      </trkpt>
      <trkpt lat="44.68503" lon="5.10123">
        <ele>301.03</ele>
        <time>2020-12-03T08:03:38Z</time>
      </trkpt>
      <trkpt lat="44.68496" lon="5.10125">
        <ele>301.51</ele>
        <time>2020-12-03T08:03:42Z</time>
      </trkpt>
      <trkpt lat="44.68478" lon="5.10123">
        <ele>303.91</ele>
        <time>2020-12-03T08:03:56Z</time>
      </trkpt>
      <trkpt lat="44.68458" lon="5.10118">
        <ele>305.84</ele>
        <time>2020-12-03T08:04:11Z</time>
      </trkpt>
      <trkpt lat="44.68437" lon="5.1011">
        <ele>308.72</ele>
        <time>2020-12-03T08:04:28Z</time>
      </trkpt>
      <trkpt lat="44.68417" lon="5.10103">
        <ele>307.76</ele>
        <time>2020-12-03T08:04:44Z</time>
      </trkpt>
      <trkpt lat="44.68398" lon="5.10098">
        <ele>308.24</ele>
        <time>2020-12-03T08:04:58Z</time>
      </trkpt>
      <trkpt lat="44.68378" lon="5.1009">
        <ele>308.24</ele>
        <time>2020-12-03T08:05:15Z</time>
      </trkpt>
      <trkpt lat="44.68363" lon="5.10085">
        <ele>309.2</ele>
        <time>2020-12-03T08:05:27Z</time>
      </trkpt>
      <trkpt lat="44.68344" lon="5.10079">
        <ele>309.2</ele>
        <time>2020-12-03T08:05:42Z</time>
      </trkpt>
      <trkpt lat="44.68334" lon="5.10074">
        <ele>311.12</ele>
        <time>2020-12-03T08:05:52Z</time>
      </trkpt>
      <trkpt lat="44.68318" lon="5.10066">
        <ele>312.09</ele>
        <time>2020-12-03T08:06:06Z</time>
      </trkpt>
      <trkpt lat="44.68298" lon="5.10059">
        <ele>312.57</ele>
        <time>2020-12-03T08:06:22Z</time>
      </trkpt>
      <trkpt lat="44.68281" lon="5.10049">
        <ele>314.49</ele>
        <time>2020-12-03T08:06:36Z</time>
      </trkpt>
      <trkpt lat="44.68266" lon="5.1004">
        <ele>316.89</ele>
        <time>2020-12-03T08:06:51Z</time>
      </trkpt>
      <trkpt lat="44.68247" lon="5.10029">
        <ele>318.81</ele>
        <time>2020-12-03T08:07:07Z</time>
      </trkpt>
      <trkpt lat="44.6824" lon="5.10025">
        <ele>319.78</ele>
        <time>2020-12-03T08:07:12Z</time>
      </trkpt>
      <trkpt lat="44.68235" lon="5.10023">
        <ele>319.78</ele>
        <time>2020-12-03T08:07:16Z</time>
      </trkpt>
      <trkpt lat="44.68214" lon="5.1001">
        <ele>321.22</ele>
        <time>2020-12-03T08:07:33Z</time>
      </trkpt>
      <trkpt lat="44.68197" lon="5.1">
        <ele>321.7</ele>
        <time>2020-12-03T08:07:48Z</time>
      </trkpt>
      <trkpt lat="44.68181" lon="5.09993">
        <ele>322.18</ele>
        <time>2020-12-03T08:08:03Z</time>
      </trkpt>
      <trkpt lat="44.68165" lon="5.09984">
        <ele>321.22</ele>
        <time>2020-12-03T08:08:16Z</time>
      </trkpt>
      <trkpt lat="44.68146" lon="5.09974">
        <ele>323.62</ele>
        <time>2020-12-03T08:08:33Z</time>
      </trkpt>
      <trkpt lat="44.68132" lon="5.09965">
        <ele>324.58</ele>
        <time>2020-12-03T08:08:46Z</time>
      </trkpt>
      <trkpt lat="44.68114" lon="5.09956">
        <ele>324.58</ele>
        <time>2020-12-03T08:09:01Z</time>
      </trkpt>
      <trkpt lat="44.68098" lon="5.09948">
        <ele>326.02</ele>
        <time>2020-12-03T08:09:15Z</time>
      </trkpt>
      <trkpt lat="44.68083" lon="5.09942">
        <ele>327.95</ele>
        <time>2020-12-03T08:09:28Z</time>
      </trkpt>
      <trkpt lat="44.6807" lon="5.09938">
        <ele>329.87</ele>
        <time>2020-12-03T08:09:37Z</time>
      </trkpt>
      <trkpt lat="44.68056" lon="5.09929">
        <ele>329.87</ele>
        <time>2020-12-03T08:09:49Z</time>
      </trkpt>
      <trkpt lat="44.68039" lon="5.09924">
        <ele>330.35</ele>
        <time>2020-12-03T08:10:01Z</time>
      </trkpt>
      <trkpt lat="44.68021" lon="5.09919">
        <ele>330.35</ele>
        <time>2020-12-03T08:10:17Z</time>
      </trkpt>
      <trkpt lat="44.68005" lon="5.09912">
        <ele>333.23</ele>
        <time>2020-12-03T08:10:29Z</time>
      </trkpt>
      <trkpt lat="44.6799" lon="5.099">
        <ele>336.6</ele>
        <time>2020-12-03T08:10:44Z</time>
      </trkpt>
      <trkpt lat="44.67978" lon="5.09887">
        <ele>338.52</ele>
        <time>2020-12-03T08:10:57Z</time>
      </trkpt>
      <trkpt lat="44.67969" lon="5.09868">
        <ele>341.41</ele>
        <time>2020-12-03T08:11:11Z</time>
      </trkpt>
      <trkpt lat="44.67965" lon="5.09848">
        <ele>344.77</ele>
        <time>2020-12-03T08:11:24Z</time>
      </trkpt>
      <trkpt lat="44.67968" lon="5.09823">
        <ele>347.65</ele>
        <time>2020-12-03T08:11:39Z</time>
      </trkpt>
      <trkpt lat="44.6797" lon="5.09798">
        <ele>350.06</ele>
        <time>2020-12-03T08:11:54Z</time>
      </trkpt>
      <trkpt lat="44.67967" lon="5.09775">
        <ele>351.02</ele>
        <time>2020-12-03T08:12:07Z</time>
      </trkpt>
      <trkpt lat="44.67967" lon="5.09771">
        <ele>351.02</ele>
        <time>2020-12-03T08:12:10Z</time>
      </trkpt>
      <trkpt lat="44.67964" lon="5.09766">
        <ele>351.5</ele>
        <time>2020-12-03T08:12:13Z</time>
      </trkpt>
      <trkpt lat="44.67963" lon="5.09757">
        <ele>351.98</ele>
        <time>2020-12-03T08:12:18Z</time>
      </trkpt>
      <trkpt lat="44.67958" lon="5.09732">
        <ele>353.9</ele>
        <time>2020-12-03T08:12:32Z</time>
      </trkpt>
      <trkpt lat="44.67951" lon="5.09709">
        <ele>356.79</ele>
        <time>2020-12-03T08:12:47Z</time>
      </trkpt>
      <trkpt lat="44.67946" lon="5.09695">
        <ele>357.75</ele>
        <time>2020-12-03T08:12:55Z</time>
      </trkpt>
      <trkpt lat="44.67934" lon="5.09679">
        <ele>358.71</ele>
        <time>2020-12-03T08:13:09Z</time>
      </trkpt>
      <trkpt lat="44.67936" lon="5.09703">
        <ele>361.11</ele>
        <time>2020-12-03T08:13:23Z</time>
      </trkpt>
      <trkpt lat="44.67935" lon="5.09723">
        <ele>364</ele>
        <time>2020-12-03T08:13:36Z</time>
      </trkpt>
      <trkpt lat="44.67936" lon="5.0975">
        <ele>365.92</ele>
        <time>2020-12-03T08:13:52Z</time>
      </trkpt>
      <trkpt lat="44.67935" lon="5.09773">
        <ele>368.32</ele>
        <time>2020-12-03T08:14:07Z</time>
      </trkpt>
      <trkpt lat="44.67933" lon="5.09783">
        <ele>368.32</ele>
        <time>2020-12-03T08:14:23Z</time>
      </trkpt>
      <trkpt lat="44.67929" lon="5.098">
        <ele>371.21</ele>
        <time>2020-12-03T08:14:36Z</time>
      </trkpt>
      <trkpt lat="44.67924" lon="5.09818">
        <ele>373.61</ele>
        <time>2020-12-03T08:14:47Z</time>
      </trkpt>
      <trkpt lat="44.67918" lon="5.09835">
        <ele>374.09</ele>
        <time>2020-12-03T08:14:59Z</time>
      </trkpt>
      <trkpt lat="44.67906" lon="5.09851">
        <ele>374.57</ele>
        <time>2020-12-03T08:15:12Z</time>
      </trkpt>
      <trkpt lat="44.67892" lon="5.09862">
        <ele>373.61</ele>
        <time>2020-12-03T08:15:26Z</time>
      </trkpt>
      <trkpt lat="44.67876" lon="5.09867">
        <ele>375.53</ele>
        <time>2020-12-03T08:15:42Z</time>
      </trkpt>
      <trkpt lat="44.67863" lon="5.09868">
        <ele>376.97</ele>
        <time>2020-12-03T08:15:55Z</time>
      </trkpt>
      <trkpt lat="44.67848" lon="5.09868">
        <ele>377.94</ele>
        <time>2020-12-03T08:16:07Z</time>
      </trkpt>
      <trkpt lat="44.6784" lon="5.09866">
        <ele>378.42</ele>
        <time>2020-12-03T08:16:18Z</time>
      </trkpt>
      <trkpt lat="44.67832" lon="5.09866">
        <ele>377.94</ele>
        <time>2020-12-03T08:16:26Z</time>
      </trkpt>
      <trkpt lat="44.67818" lon="5.0986">
        <ele>378.42</ele>
        <time>2020-12-03T08:16:37Z</time>
      </trkpt>
      <trkpt lat="44.67811" lon="5.0986">
        <ele>379.38</ele>
        <time>2020-12-03T08:16:42Z</time>
      </trkpt>
      <trkpt lat="44.67797" lon="5.09855">
        <ele>379.38</ele>
        <time>2020-12-03T08:16:54Z</time>
      </trkpt>
      <trkpt lat="44.67783" lon="5.09851">
        <ele>378.9</ele>
        <time>2020-12-03T08:17:05Z</time>
      </trkpt>
      <trkpt lat="44.67764" lon="5.0985">
        <ele>379.86</ele>
        <time>2020-12-03T08:17:18Z</time>
      </trkpt>
      <trkpt lat="44.67748" lon="5.09845">
        <ele>380.34</ele>
        <time>2020-12-03T08:17:32Z</time>
      </trkpt>
      <trkpt lat="44.67735" lon="5.09837">
        <ele>383.22</ele>
        <time>2020-12-03T08:17:45Z</time>
      </trkpt>
      <trkpt lat="44.67726" lon="5.09826">
        <ele>385.15</ele>
        <time>2020-12-03T08:17:56Z</time>
      </trkpt>
      <trkpt lat="44.67717" lon="5.09813">
        <ele>387.55</ele>
        <time>2020-12-03T08:18:10Z</time>
      </trkpt>
      <trkpt lat="44.67707" lon="5.098">
        <ele>389.95</ele>
        <time>2020-12-03T08:18:23Z</time>
      </trkpt>
      <trkpt lat="44.67699" lon="5.09789">
        <ele>392.84</ele>
        <time>2020-12-03T08:18:35Z</time>
      </trkpt>
      <trkpt lat="44.67694" lon="5.09783">
        <ele>394.28</ele>
        <time>2020-12-03T08:18:49Z</time>
      </trkpt>
      <trkpt lat="44.67686" lon="5.09773">
        <ele>395.24</ele>
        <time>2020-12-03T08:19:01Z</time>
      </trkpt>
      <trkpt lat="44.67676" lon="5.09762">
        <ele>397.64</ele>
        <time>2020-12-03T08:19:14Z</time>
      </trkpt>
      <trkpt lat="44.6767" lon="5.09756">
        <ele>400.05</ele>
        <time>2020-12-03T08:19:27Z</time>
      </trkpt>
      <trkpt lat="44.67662" lon="5.09747">
        <ele>401.49</ele>
        <time>2020-12-03T08:19:43Z</time>
      </trkpt>
      <trkpt lat="44.67655" lon="5.09736">
        <ele>400.05</ele>
        <time>2020-12-03T08:19:54Z</time>
      </trkpt>
      <trkpt lat="44.67647" lon="5.09729">
        <ele>402.93</ele>
        <time>2020-12-03T08:20:05Z</time>
      </trkpt>
      <trkpt lat="44.67637" lon="5.09722">
        <ele>406.29</ele>
        <time>2020-12-03T08:20:18Z</time>
      </trkpt>
      <trkpt lat="44.67628" lon="5.09716">
        <ele>409.18</ele>
        <time>2020-12-03T08:20:30Z</time>
      </trkpt>
      <trkpt lat="44.67627" lon="5.09716">
        <ele>409.66</ele>
        <time>2020-12-03T08:20:31Z</time>
      </trkpt>
      <trkpt lat="44.67623" lon="5.09715">
        <ele>411.1</ele>
        <time>2020-12-03T08:20:36Z</time>
      </trkpt>
      <trkpt lat="44.67623" lon="5.09713">
        <ele>411.58</ele>
        <time>2020-12-03T08:20:38Z</time>
      </trkpt>
      <trkpt lat="44.67607" lon="5.09705">
        <ele>413.98</ele>
        <time>2020-12-03T08:20:54Z</time>
      </trkpt>
      <trkpt lat="44.67597" lon="5.097">
        <ele>414.47</ele>
        <time>2020-12-03T08:21:06Z</time>
      </trkpt>
      <trkpt lat="44.67582" lon="5.09694">
        <ele>414.95</ele>
        <time>2020-12-03T08:21:19Z</time>
      </trkpt>
      <trkpt lat="44.67567" lon="5.09687">
        <ele>414.47</ele>
        <time>2020-12-03T08:21:32Z</time>
      </trkpt>
      <trkpt lat="44.67551" lon="5.09682">
        <ele>414.47</ele>
        <time>2020-12-03T08:21:45Z</time>
      </trkpt>
      <trkpt lat="44.67535" lon="5.09675">
        <ele>415.43</ele>
        <time>2020-12-03T08:21:59Z</time>
      </trkpt>
      <trkpt lat="44.67523" lon="5.09668">
        <ele>416.87</ele>
        <time>2020-12-03T08:22:10Z</time>
      </trkpt>
      <trkpt lat="44.67513" lon="5.09661">
        <ele>419.27</ele>
        <time>2020-12-03T08:22:22Z</time>
      </trkpt>
      <trkpt lat="44.675" lon="5.09652">
        <ele>421.19</ele>
        <time>2020-12-03T08:22:34Z</time>
      </trkpt>
      <trkpt lat="44.67488" lon="5.09643">
        <ele>423.12</ele>
        <time>2020-12-03T08:22:46Z</time>
      </trkpt>
      <trkpt lat="44.67478" lon="5.09636">
        <ele>425.52</ele>
        <time>2020-12-03T08:22:56Z</time>
      </trkpt>
      <trkpt lat="44.67469" lon="5.09629">
        <ele>427.44</ele>
        <time>2020-12-03T08:23:07Z</time>
      </trkpt>
      <trkpt lat="44.67468" lon="5.09628">
        <ele>427.44</ele>
        <time>2020-12-03T08:23:08Z</time>
      </trkpt>
      <trkpt lat="44.67466" lon="5.09633">
        <ele>427.92</ele>
        <time>2020-12-03T08:23:12Z</time>
      </trkpt>
      <trkpt lat="44.67471" lon="5.09645">
        <ele>429.37</ele>
        <time>2020-12-03T08:23:24Z</time>
      </trkpt>
      <trkpt lat="44.6748" lon="5.09655">
        <ele>430.81</ele>
        <time>2020-12-03T08:23:35Z</time>
      </trkpt>
      <trkpt lat="44.67487" lon="5.09666">
        <ele>432.25</ele>
        <time>2020-12-03T08:23:45Z</time>
      </trkpt>
      <trkpt lat="44.67493" lon="5.09677">
        <ele>434.65</ele>
        <time>2020-12-03T08:23:54Z</time>
      </trkpt>
      <trkpt lat="44.675" lon="5.09694">
        <ele>436.1</ele>
        <time>2020-12-03T08:24:07Z</time>
      </trkpt>
      <trkpt lat="44.67503" lon="5.09708">
        <ele>438.02</ele>
        <time>2020-12-03T08:24:17Z</time>
      </trkpt>
      <trkpt lat="44.67499" lon="5.09712">
        <ele>438.5</ele>
        <time>2020-12-03T08:24:22Z</time>
      </trkpt>
      <trkpt lat="44.67492" lon="5.0971">
        <ele>439.94</ele>
        <time>2020-12-03T08:24:35Z</time>
      </trkpt>
      <trkpt lat="44.67491" lon="5.09711">
        <ele>438.98</ele>
        <time>2020-12-03T08:24:54Z</time>
      </trkpt>
      <trkpt lat="44.6749" lon="5.09713">
        <ele>438.98</ele>
        <time>2020-12-03T08:25:16Z</time>
      </trkpt>
      <trkpt lat="44.67489" lon="5.09711">
        <ele>438.98</ele>
        <time>2020-12-03T08:25:32Z</time>
      </trkpt>
      <trkpt lat="44.6749" lon="5.09708">
        <ele>438.98</ele>
        <time>2020-12-03T08:25:35Z</time>
      </trkpt>
      <trkpt lat="44.67489" lon="5.09705">
        <ele>438.98</ele>
        <time>2020-12-03T08:25:37Z</time>
      </trkpt>
      <trkpt lat="44.67484" lon="5.09705">
        <ele>438.98</ele>
        <time>2020-12-03T08:25:43Z</time>
      </trkpt>
      <trkpt lat="44.67473" lon="5.0972">
        <ele>440.9</ele>
        <time>2020-12-03T08:26:00Z</time>
      </trkpt>
      <trkpt lat="44.67462" lon="5.09725">
        <ele>440.42</ele>
        <time>2020-12-03T08:26:13Z</time>
      </trkpt>
      <trkpt lat="44.67452" lon="5.09723">
        <ele>440.42</ele>
        <time>2020-12-03T08:26:25Z</time>
      </trkpt>
      <trkpt lat="44.67441" lon="5.09728">
        <ele>442.34</ele>
        <time>2020-12-03T08:26:37Z</time>
      </trkpt>
      <trkpt lat="44.67429" lon="5.09737">
        <ele>448.11</ele>
        <time>2020-12-03T08:26:52Z</time>
      </trkpt>
      <trkpt lat="44.67417" lon="5.09754">
        <ele>453.88</ele>
        <time>2020-12-03T08:27:05Z</time>
      </trkpt>
      <trkpt lat="44.67415" lon="5.09757">
        <ele>452.92</ele>
        <time>2020-12-03T08:27:07Z</time>
      </trkpt>
      <trkpt lat="44.67411" lon="5.09776">
        <ele>453.88</ele>
        <time>2020-12-03T08:27:19Z</time>
      </trkpt>
      <trkpt lat="44.67412" lon="5.09782">
        <ele>454.84</ele>
        <time>2020-12-03T08:27:25Z</time>
      </trkpt>
      <trkpt lat="44.67414" lon="5.09786">
        <ele>455.32</ele>
        <time>2020-12-03T08:27:29Z</time>
      </trkpt>
      <trkpt lat="44.67421" lon="5.09791">
        <ele>456.28</ele>
        <time>2020-12-03T08:27:35Z</time>
      </trkpt>
      <trkpt lat="44.67424" lon="5.09799">
        <ele>456.28</ele>
        <time>2020-12-03T08:27:41Z</time>
      </trkpt>
      <trkpt lat="44.67425" lon="5.09822">
        <ele>455.8</ele>
        <time>2020-12-03T08:27:55Z</time>
      </trkpt>
      <trkpt lat="44.67426" lon="5.09831">
        <ele>454.36</ele>
        <time>2020-12-03T08:28:02Z</time>
      </trkpt>
      <trkpt lat="44.67418" lon="5.09841">
        <ele>452.92</ele>
        <time>2020-12-03T08:28:14Z</time>
      </trkpt>
      <trkpt lat="44.67412" lon="5.09842">
        <ele>453.4</ele>
        <time>2020-12-03T08:28:25Z</time>
      </trkpt>
      <trkpt lat="44.6741" lon="5.09841">
        <ele>453.88</ele>
        <time>2020-12-03T08:28:28Z</time>
      </trkpt>
      <trkpt lat="44.67401" lon="5.09834">
        <ele>457.24</ele>
        <time>2020-12-03T08:28:40Z</time>
      </trkpt>
      <trkpt lat="44.67399" lon="5.09832">
        <ele>458.69</ele>
        <time>2020-12-03T08:28:44Z</time>
      </trkpt>
      <trkpt lat="44.67389" lon="5.09828">
        <ele>459.65</ele>
        <time>2020-12-03T08:28:57Z</time>
      </trkpt>
      <trkpt lat="44.67383" lon="5.09826">
        <ele>461.09</ele>
        <time>2020-12-03T08:29:10Z</time>
      </trkpt>
      <trkpt lat="44.67373" lon="5.09827">
        <ele>461.57</ele>
        <time>2020-12-03T08:29:23Z</time>
      </trkpt>
      <trkpt lat="44.67361" lon="5.09829">
        <ele>464.45</ele>
        <time>2020-12-03T08:29:36Z</time>
      </trkpt>
      <trkpt lat="44.67358" lon="5.09828">
        <ele>465.42</ele>
        <time>2020-12-03T08:29:39Z</time>
      </trkpt>
      <trkpt lat="44.67345" lon="5.09831">
        <ele>466.86</ele>
        <time>2020-12-03T08:29:52Z</time>
      </trkpt>
      <trkpt lat="44.67334" lon="5.09832">
        <ele>465.9</ele>
        <time>2020-12-03T08:30:03Z</time>
      </trkpt>
      <trkpt lat="44.67326" lon="5.09833">
        <ele>465.9</ele>
        <time>2020-12-03T08:30:12Z</time>
      </trkpt>
      <trkpt lat="44.67321" lon="5.0985">
        <ele>469.26</ele>
        <time>2020-12-03T08:30:22Z</time>
      </trkpt>
      <trkpt lat="44.67318" lon="5.0986">
        <ele>470.22</ele>
        <time>2020-12-03T08:30:30Z</time>
      </trkpt>
      <trkpt lat="44.67313" lon="5.09871">
        <ele>471.18</ele>
        <time>2020-12-03T08:30:40Z</time>
      </trkpt>
      <trkpt lat="44.67306" lon="5.09879">
        <ele>473.11</ele>
        <time>2020-12-03T08:30:55Z</time>
      </trkpt>
      <trkpt lat="44.67297" lon="5.09888">
        <ele>475.03</ele>
        <time>2020-12-03T08:31:05Z</time>
      </trkpt>
      <trkpt lat="44.67291" lon="5.09895">
        <ele>474.55</ele>
        <time>2020-12-03T08:31:18Z</time>
      </trkpt>
      <trkpt lat="44.67289" lon="5.09897">
        <ele>475.51</ele>
        <time>2020-12-03T08:31:29Z</time>
      </trkpt>
      <trkpt lat="44.67282" lon="5.09904">
        <ele>475.51</ele>
        <time>2020-12-03T08:31:42Z</time>
      </trkpt>
      <trkpt lat="44.67273" lon="5.09916">
        <ele>476.95</ele>
        <time>2020-12-03T08:31:55Z</time>
      </trkpt>
      <trkpt lat="44.67265" lon="5.09927">
        <ele>480.32</ele>
        <time>2020-12-03T08:32:08Z</time>
      </trkpt>
      <trkpt lat="44.67258" lon="5.09939">
        <ele>483.68</ele>
        <time>2020-12-03T08:32:20Z</time>
      </trkpt>
      <trkpt lat="44.67253" lon="5.0995">
        <ele>485.12</ele>
        <time>2020-12-03T08:32:32Z</time>
      </trkpt>
      <trkpt lat="44.67248" lon="5.09959">
        <ele>485.6</ele>
        <time>2020-12-03T08:32:46Z</time>
      </trkpt>
      <trkpt lat="44.67242" lon="5.09965">
        <ele>487.05</ele>
        <time>2020-12-03T08:32:58Z</time>
      </trkpt>
      <trkpt lat="44.67235" lon="5.09976">
        <ele>490.41</ele>
        <time>2020-12-03T08:33:07Z</time>
      </trkpt>
      <trkpt lat="44.67227" lon="5.09985">
        <ele>492.33</ele>
        <time>2020-12-03T08:33:19Z</time>
      </trkpt>
      <trkpt lat="44.6722" lon="5.09995">
        <ele>498.1</ele>
        <time>2020-12-03T08:33:34Z</time>
      </trkpt>
      <trkpt lat="44.67212" lon="5.10005">
        <ele>504.35</ele>
        <time>2020-12-03T08:33:47Z</time>
      </trkpt>
      <trkpt lat="44.67205" lon="5.10025">
        <ele>506.75</ele>
        <time>2020-12-03T08:34:01Z</time>
      </trkpt>
      <trkpt lat="44.67193" lon="5.10036">
        <ele>506.27</ele>
        <time>2020-12-03T08:34:14Z</time>
      </trkpt>
      <trkpt lat="44.67185" lon="5.10048">
        <ele>508.19</ele>
        <time>2020-12-03T08:34:26Z</time>
      </trkpt>
      <trkpt lat="44.67177" lon="5.10061">
        <ele>509.16</ele>
        <time>2020-12-03T08:34:40Z</time>
      </trkpt>
      <trkpt lat="44.6717" lon="5.10079">
        <ele>510.6</ele>
        <time>2020-12-03T08:34:52Z</time>
      </trkpt>
      <trkpt lat="44.67166" lon="5.10095">
        <ele>512.04</ele>
        <time>2020-12-03T08:35:05Z</time>
      </trkpt>
      <trkpt lat="44.67164" lon="5.10105">
        <ele>513.48</ele>
        <time>2020-12-03T08:35:11Z</time>
      </trkpt>
      <trkpt lat="44.67163" lon="5.10112">
        <ele>513.48</ele>
        <time>2020-12-03T08:35:15Z</time>
      </trkpt>
      <trkpt lat="44.67154" lon="5.10131">
        <ele>513.96</ele>
        <time>2020-12-03T08:35:28Z</time>
      </trkpt>
      <trkpt lat="44.67147" lon="5.10146">
        <ele>512.52</ele>
        <time>2020-12-03T08:35:39Z</time>
      </trkpt>
      <trkpt lat="44.6714" lon="5.10161">
        <ele>512.04</ele>
        <time>2020-12-03T08:35:50Z</time>
      </trkpt>
      <trkpt lat="44.67132" lon="5.10178">
        <ele>514.44</ele>
        <time>2020-12-03T08:36:04Z</time>
      </trkpt>
      <trkpt lat="44.67126" lon="5.10196">
        <ele>517.81</ele>
        <time>2020-12-03T08:36:16Z</time>
      </trkpt>
      <trkpt lat="44.67119" lon="5.10213">
        <ele>520.21</ele>
        <time>2020-12-03T08:36:29Z</time>
      </trkpt>
      <trkpt lat="44.67116" lon="5.10223">
        <ele>520.21</ele>
        <time>2020-12-03T08:36:35Z</time>
      </trkpt>
      <trkpt lat="44.67111" lon="5.10237">
        <ele>519.25</ele>
        <time>2020-12-03T08:36:44Z</time>
      </trkpt>
      <trkpt lat="44.67101" lon="5.10252">
        <ele>518.77</ele>
        <time>2020-12-03T08:36:56Z</time>
      </trkpt>
      <trkpt lat="44.67094" lon="5.10266">
        <ele>520.69</ele>
        <time>2020-12-03T08:37:08Z</time>
      </trkpt>
      <trkpt lat="44.67092" lon="5.10288">
        <ele>521.17</ele>
        <time>2020-12-03T08:37:20Z</time>
      </trkpt>
      <trkpt lat="44.67088" lon="5.10297">
        <ele>522.13</ele>
        <time>2020-12-03T08:37:28Z</time>
      </trkpt>
      <trkpt lat="44.67088" lon="5.10304">
        <ele>521.17</ele>
        <time>2020-12-03T08:37:37Z</time>
      </trkpt>
      <trkpt lat="44.67088" lon="5.10313">
        <ele>522.61</ele>
        <time>2020-12-03T08:37:42Z</time>
      </trkpt>
      <trkpt lat="44.67089" lon="5.10327">
        <ele>525.02</ele>
        <time>2020-12-03T08:37:54Z</time>
      </trkpt>
      <trkpt lat="44.67093" lon="5.1033">
        <ele>524.06</ele>
        <time>2020-12-03T08:37:59Z</time>
      </trkpt>
      <trkpt lat="44.67101" lon="5.10348">
        <ele>516.85</ele>
        <time>2020-12-03T08:38:12Z</time>
      </trkpt>
      <trkpt lat="44.67102" lon="5.10363">
        <ele>512.04</ele>
        <time>2020-12-03T08:38:22Z</time>
      </trkpt>
      <trkpt lat="44.67104" lon="5.10371">
        <ele>512.04</ele>
        <time>2020-12-03T08:38:32Z</time>
      </trkpt>
      <trkpt lat="44.67102" lon="5.10376">
        <ele>512.04</ele>
        <time>2020-12-03T08:38:39Z</time>
      </trkpt>
      <trkpt lat="44.671" lon="5.10384">
        <ele>512.04</ele>
        <time>2020-12-03T08:38:49Z</time>
      </trkpt>
      <trkpt lat="44.67096" lon="5.1039">
        <ele>511.08</ele>
        <time>2020-12-03T08:38:57Z</time>
      </trkpt>
      <trkpt lat="44.67094" lon="5.10398">
        <ele>512.04</ele>
        <time>2020-12-03T08:39:06Z</time>
      </trkpt>
      <trkpt lat="44.67089" lon="5.10404">
        <ele>514.44</ele>
        <time>2020-12-03T08:39:17Z</time>
      </trkpt>
      <trkpt lat="44.67089" lon="5.10407">
        <ele>514.92</ele>
        <time>2020-12-03T08:39:20Z</time>
      </trkpt>
      <trkpt lat="44.67085" lon="5.1041">
        <ele>517.33</ele>
        <time>2020-12-03T08:39:28Z</time>
      </trkpt>
      <trkpt lat="44.67081" lon="5.10416">
        <ele>521.17</ele>
        <time>2020-12-03T08:39:40Z</time>
      </trkpt>
      <trkpt lat="44.67079" lon="5.1042">
        <ele>523.58</ele>
        <time>2020-12-03T08:39:47Z</time>
      </trkpt>
      <trkpt lat="44.67076" lon="5.10427">
        <ele>525.02</ele>
        <time>2020-12-03T08:39:57Z</time>
      </trkpt>
      <trkpt lat="44.67076" lon="5.10429">
        <ele>525.98</ele>
        <time>2020-12-03T08:40:22Z</time>
      </trkpt>
      <trkpt lat="44.6707" lon="5.10432">
        <ele>525.98</ele>
        <time>2020-12-03T08:40:33Z</time>
      </trkpt>
      <trkpt lat="44.67066" lon="5.10437">
        <ele>527.9</ele>
        <time>2020-12-03T08:40:43Z</time>
      </trkpt>
      <trkpt lat="44.67065" lon="5.10438">
        <ele>528.86</ele>
        <time>2020-12-03T08:40:46Z</time>
      </trkpt>
      <trkpt lat="44.67061" lon="5.10443">
        <ele>531.27</ele>
        <time>2020-12-03T08:40:56Z</time>
      </trkpt>
      <trkpt lat="44.67057" lon="5.10445">
        <ele>533.19</ele>
        <time>2020-12-03T08:41:05Z</time>
      </trkpt>
      <trkpt lat="44.67054" lon="5.10452">
        <ele>535.11</ele>
        <time>2020-12-03T08:41:14Z</time>
      </trkpt>
      <trkpt lat="44.6705" lon="5.10453">
        <ele>535.11</ele>
        <time>2020-12-03T08:41:26Z</time>
      </trkpt>
      <trkpt lat="44.67045" lon="5.10455">
        <ele>535.59</ele>
        <time>2020-12-03T08:41:44Z</time>
      </trkpt>
      <trkpt lat="44.67041" lon="5.10459">
        <ele>537.99</ele>
        <time>2020-12-03T08:41:56Z</time>
      </trkpt>
      <trkpt lat="44.67038" lon="5.10457">
        <ele>540.88</ele>
        <time>2020-12-03T08:42:09Z</time>
      </trkpt>
      <trkpt lat="44.67032" lon="5.1046">
        <ele>543.28</ele>
        <time>2020-12-03T08:42:20Z</time>
      </trkpt>
      <trkpt lat="44.6703" lon="5.10459">
        <ele>546.65</ele>
        <time>2020-12-03T08:42:40Z</time>
      </trkpt>
      <trkpt lat="44.67025" lon="5.10452">
        <ele>549.05</ele>
        <time>2020-12-03T08:42:51Z</time>
      </trkpt>
      <trkpt lat="44.67018" lon="5.10449">
        <ele>550.97</ele>
        <time>2020-12-03T08:43:01Z</time>
      </trkpt>
      <trkpt lat="44.67005" lon="5.10448">
        <ele>550.97</ele>
        <time>2020-12-03T08:43:13Z</time>
      </trkpt>
      <trkpt lat="44.66996" lon="5.10451">
        <ele>550.97</ele>
        <time>2020-12-03T08:43:22Z</time>
      </trkpt>
      <trkpt lat="44.66989" lon="5.1046">
        <ele>553.38</ele>
        <time>2020-12-03T08:43:33Z</time>
      </trkpt>
      <trkpt lat="44.66983" lon="5.10467">
        <ele>552.9</ele>
        <time>2020-12-03T08:43:43Z</time>
      </trkpt>
      <trkpt lat="44.66976" lon="5.10476">
        <ele>554.82</ele>
        <time>2020-12-03T08:43:56Z</time>
      </trkpt>
      <trkpt lat="44.66973" lon="5.10485">
        <ele>556.74</ele>
        <time>2020-12-03T08:44:07Z</time>
      </trkpt>
      <trkpt lat="44.6697" lon="5.10495">
        <ele>559.14</ele>
        <time>2020-12-03T08:44:19Z</time>
      </trkpt>
      <trkpt lat="44.66969" lon="5.10505">
        <ele>561.55</ele>
        <time>2020-12-03T08:44:30Z</time>
      </trkpt>
      <trkpt lat="44.66966" lon="5.10515">
        <ele>562.99</ele>
        <time>2020-12-03T08:44:41Z</time>
      </trkpt>
      <trkpt lat="44.66963" lon="5.10525">
        <ele>564.91</ele>
        <time>2020-12-03T08:44:51Z</time>
      </trkpt>
      <trkpt lat="44.66962" lon="5.10532">
        <ele>568.28</ele>
        <time>2020-12-03T08:45:01Z</time>
      </trkpt>
      <trkpt lat="44.6696" lon="5.10537">
        <ele>569.24</ele>
        <time>2020-12-03T08:45:07Z</time>
      </trkpt>
      <trkpt lat="44.66953" lon="5.10544">
        <ele>571.16</ele>
        <time>2020-12-03T08:45:18Z</time>
      </trkpt>
      <trkpt lat="44.66948" lon="5.10553">
        <ele>575.01</ele>
        <time>2020-12-03T08:45:32Z</time>
      </trkpt>
      <trkpt lat="44.66944" lon="5.10561">
        <ele>576.45</ele>
        <time>2020-12-03T08:45:42Z</time>
      </trkpt>
      <trkpt lat="44.66938" lon="5.10572">
        <ele>574.04</ele>
        <time>2020-12-03T08:45:54Z</time>
      </trkpt>
      <trkpt lat="44.66935" lon="5.10581">
        <ele>576.45</ele>
        <time>2020-12-03T08:46:06Z</time>
      </trkpt>
      <trkpt lat="44.66931" lon="5.10593">
        <ele>577.41</ele>
        <time>2020-12-03T08:46:18Z</time>
      </trkpt>
      <trkpt lat="44.66927" lon="5.106">
        <ele>578.37</ele>
        <time>2020-12-03T08:46:28Z</time>
      </trkpt>
      <trkpt lat="44.66921" lon="5.10607">
        <ele>579.81</ele>
        <time>2020-12-03T08:46:39Z</time>
      </trkpt>
      <trkpt lat="44.66918" lon="5.10615">
        <ele>583.66</ele>
        <time>2020-12-03T08:46:52Z</time>
      </trkpt>
      <trkpt lat="44.66914" lon="5.10617">
        <ele>587.98</ele>
        <time>2020-12-03T08:47:02Z</time>
      </trkpt>
      <trkpt lat="44.66903" lon="5.10622">
        <ele>588.95</ele>
        <time>2020-12-03T08:47:14Z</time>
      </trkpt>
      <trkpt lat="44.66895" lon="5.10622">
        <ele>589.43</ele>
        <time>2020-12-03T08:47:27Z</time>
      </trkpt>
      <trkpt lat="44.66885" lon="5.10627">
        <ele>588.95</ele>
        <time>2020-12-03T08:47:40Z</time>
      </trkpt>
      <trkpt lat="44.6688" lon="5.10634">
        <ele>589.91</ele>
        <time>2020-12-03T08:47:54Z</time>
      </trkpt>
      <trkpt lat="44.66875" lon="5.10646">
        <ele>592.31</ele>
        <time>2020-12-03T08:48:04Z</time>
      </trkpt>
      <trkpt lat="44.66869" lon="5.10655">
        <ele>593.75</ele>
        <time>2020-12-03T08:48:16Z</time>
      </trkpt>
      <trkpt lat="44.66864" lon="5.10666">
        <ele>596.15</ele>
        <time>2020-12-03T08:48:29Z</time>
      </trkpt>
      <trkpt lat="44.66861" lon="5.10681">
        <ele>600</ele>
        <time>2020-12-03T08:48:39Z</time>
      </trkpt>
      <trkpt lat="44.66857" lon="5.10705">
        <ele>599.04</ele>
        <time>2020-12-03T08:48:51Z</time>
      </trkpt>
      <trkpt lat="44.66849" lon="5.10717">
        <ele>596.64</ele>
        <time>2020-12-03T08:49:05Z</time>
      </trkpt>
      <trkpt lat="44.66845" lon="5.10728">
        <ele>595.67</ele>
        <time>2020-12-03T08:49:17Z</time>
      </trkpt>
      <trkpt lat="44.66842" lon="5.10739">
        <ele>596.15</ele>
        <time>2020-12-03T08:49:26Z</time>
      </trkpt>
      <trkpt lat="44.66837" lon="5.10746">
        <ele>597.12</ele>
        <time>2020-12-03T08:49:36Z</time>
      </trkpt>
      <trkpt lat="44.66834" lon="5.10755">
        <ele>597.6</ele>
        <time>2020-12-03T08:49:46Z</time>
      </trkpt>
      <trkpt lat="44.66829" lon="5.10765">
        <ele>598.56</ele>
        <time>2020-12-03T08:49:57Z</time>
      </trkpt>
      <trkpt lat="44.66825" lon="5.10772">
        <ele>599.52</ele>
        <time>2020-12-03T08:50:04Z</time>
      </trkpt>
      <trkpt lat="44.66821" lon="5.10783">
        <ele>600.48</ele>
        <time>2020-12-03T08:50:15Z</time>
      </trkpt>
      <trkpt lat="44.6682" lon="5.10795">
        <ele>602.88</ele>
        <time>2020-12-03T08:50:27Z</time>
      </trkpt>
      <trkpt lat="44.66821" lon="5.10805">
        <ele>606.25</ele>
        <time>2020-12-03T08:50:39Z</time>
      </trkpt>
      <trkpt lat="44.66821" lon="5.10816">
        <ele>608.65</ele>
        <time>2020-12-03T08:50:50Z</time>
      </trkpt>
      <trkpt lat="44.66821" lon="5.10821">
        <ele>608.65</ele>
        <time>2020-12-03T08:51:05Z</time>
      </trkpt>
      <trkpt lat="44.66819" lon="5.10831">
        <ele>608.17</ele>
        <time>2020-12-03T08:51:17Z</time>
      </trkpt>
      <trkpt lat="44.66817" lon="5.1084">
        <ele>608.17</ele>
        <time>2020-12-03T08:51:28Z</time>
      </trkpt>
      <trkpt lat="44.66815" lon="5.10851">
        <ele>607.21</ele>
        <time>2020-12-03T08:51:41Z</time>
      </trkpt>
      <trkpt lat="44.66813" lon="5.10858">
        <ele>610.09</ele>
        <time>2020-12-03T08:51:52Z</time>
      </trkpt>
      <trkpt lat="44.66811" lon="5.10869">
        <ele>612.5</ele>
        <time>2020-12-03T08:52:02Z</time>
      </trkpt>
      <trkpt lat="44.66807" lon="5.10882">
        <ele>615.38</ele>
        <time>2020-12-03T08:52:15Z</time>
      </trkpt>
      <trkpt lat="44.66806" lon="5.10884">
        <ele>615.86</ele>
        <time>2020-12-03T08:52:26Z</time>
      </trkpt>
      <trkpt lat="44.66803" lon="5.1089">
        <ele>615.86</ele>
        <time>2020-12-03T08:52:54Z</time>
      </trkpt>
      <trkpt lat="44.66806" lon="5.10888">
        <ele>613.94</ele>
        <time>2020-12-03T08:53:10Z</time>
      </trkpt>
      <trkpt lat="44.66808" lon="5.1089">
        <ele>613.46</ele>
        <time>2020-12-03T08:53:23Z</time>
      </trkpt>
      <trkpt lat="44.66806" lon="5.10888">
        <ele>615.38</ele>
        <time>2020-12-03T08:53:59Z</time>
      </trkpt>
      <trkpt lat="44.66805" lon="5.10888">
        <ele>615.86</ele>
        <time>2020-12-03T08:54:22Z</time>
      </trkpt>
      <trkpt lat="44.66802" lon="5.10892">
        <ele>615.38</ele>
        <time>2020-12-03T08:54:41Z</time>
      </trkpt>
      <trkpt lat="44.668" lon="5.10901">
        <ele>616.34</ele>
        <time>2020-12-03T08:54:52Z</time>
      </trkpt>
      <trkpt lat="44.668" lon="5.10907">
        <ele>617.78</ele>
        <time>2020-12-03T08:55:02Z</time>
      </trkpt>
      <trkpt lat="44.66797" lon="5.1091">
        <ele>621.63</ele>
        <time>2020-12-03T08:55:12Z</time>
      </trkpt>
      <trkpt lat="44.66796" lon="5.1092">
        <ele>624.03</ele>
        <time>2020-12-03T08:55:22Z</time>
      </trkpt>
      <trkpt lat="44.66794" lon="5.10924">
        <ele>626.44</ele>
        <time>2020-12-03T08:55:32Z</time>
      </trkpt>
      <trkpt lat="44.66791" lon="5.10931">
        <ele>628.84</ele>
        <time>2020-12-03T08:55:44Z</time>
      </trkpt>
      <trkpt lat="44.66795" lon="5.10934">
        <ele>632.2</ele>
        <time>2020-12-03T08:55:58Z</time>
      </trkpt>
      <trkpt lat="44.66795" lon="5.10946">
        <ele>635.57</ele>
        <time>2020-12-03T08:56:24Z</time>
      </trkpt>
      <trkpt lat="44.66792" lon="5.10958">
        <ele>634.61</ele>
        <time>2020-12-03T08:56:38Z</time>
      </trkpt>
      <trkpt lat="44.66791" lon="5.1096">
        <ele>634.13</ele>
        <time>2020-12-03T08:56:41Z</time>
      </trkpt>
      <trkpt lat="44.66788" lon="5.10969">
        <ele>634.13</ele>
        <time>2020-12-03T08:56:54Z</time>
      </trkpt>
      <trkpt lat="44.66786" lon="5.10982">
        <ele>636.05</ele>
        <time>2020-12-03T08:57:07Z</time>
      </trkpt>
      <trkpt lat="44.66785" lon="5.1099">
        <ele>637.97</ele>
        <time>2020-12-03T08:57:17Z</time>
      </trkpt>
      <trkpt lat="44.66786" lon="5.10991">
        <ele>637.97</ele>
        <time>2020-12-03T08:57:18Z</time>
      </trkpt>
      <trkpt lat="44.66788" lon="5.11">
        <ele>638.93</ele>
        <time>2020-12-03T08:57:31Z</time>
      </trkpt>
      <trkpt lat="44.66788" lon="5.11006">
        <ele>642.3</ele>
        <time>2020-12-03T08:57:42Z</time>
      </trkpt>
      <trkpt lat="44.66788" lon="5.11017">
        <ele>646.14</ele>
        <time>2020-12-03T08:57:53Z</time>
      </trkpt>
      <trkpt lat="44.66786" lon="5.11028">
        <ele>646.14</ele>
        <time>2020-12-03T08:58:06Z</time>
      </trkpt>
      <trkpt lat="44.66786" lon="5.1103">
        <ele>646.62</ele>
        <time>2020-12-03T08:58:08Z</time>
      </trkpt>
      <trkpt lat="44.66782" lon="5.11044">
        <ele>646.14</ele>
        <time>2020-12-03T08:58:19Z</time>
      </trkpt>
      <trkpt lat="44.66778" lon="5.11055">
        <ele>648.07</ele>
        <time>2020-12-03T08:58:31Z</time>
      </trkpt>
      <trkpt lat="44.66773" lon="5.11071">
        <ele>649.51</ele>
        <time>2020-12-03T08:58:43Z</time>
      </trkpt>
      <trkpt lat="44.6677" lon="5.1108">
        <ele>651.91</ele>
        <time>2020-12-03T08:58:52Z</time>
      </trkpt>
      <trkpt lat="44.66767" lon="5.11085">
        <ele>654.31</ele>
        <time>2020-12-03T08:59:00Z</time>
      </trkpt>
      <trkpt lat="44.66763" lon="5.11087">
        <ele>657.68</ele>
        <time>2020-12-03T08:59:08Z</time>
      </trkpt>
      <trkpt lat="44.66757" lon="5.111">
        <ele>662.01</ele>
        <time>2020-12-03T08:59:21Z</time>
      </trkpt>
      <trkpt lat="44.66751" lon="5.11122">
        <ele>661.52</ele>
        <time>2020-12-03T08:59:35Z</time>
      </trkpt>
      <trkpt lat="44.66745" lon="5.11143">
        <ele>660.08</ele>
        <time>2020-12-03T08:59:45Z</time>
      </trkpt>
      <trkpt lat="44.66742" lon="5.11151">
        <ele>662.49</ele>
        <time>2020-12-03T08:59:53Z</time>
      </trkpt>
      <trkpt lat="44.66734" lon="5.11168">
        <ele>662.97</ele>
        <time>2020-12-03T09:00:04Z</time>
      </trkpt>
      <trkpt lat="44.66724" lon="5.11176">
        <ele>660.56</ele>
        <time>2020-12-03T09:00:13Z</time>
      </trkpt>
      <trkpt lat="44.66713" lon="5.11191">
        <ele>657.68</ele>
        <time>2020-12-03T09:00:27Z</time>
      </trkpt>
      <trkpt lat="44.66705" lon="5.11193">
        <ele>659.12</ele>
        <time>2020-12-03T09:00:39Z</time>
      </trkpt>
      <trkpt lat="44.667" lon="5.11195">
        <ele>662.01</ele>
        <time>2020-12-03T09:00:48Z</time>
      </trkpt>
      <trkpt lat="44.66695" lon="5.11198">
        <ele>665.37</ele>
        <time>2020-12-03T09:01:00Z</time>
      </trkpt>
      <trkpt lat="44.66688" lon="5.11199">
        <ele>666.81</ele>
        <time>2020-12-03T09:01:10Z</time>
      </trkpt>
      <trkpt lat="44.66683" lon="5.11207">
        <ele>667.29</ele>
        <time>2020-12-03T09:01:23Z</time>
      </trkpt>
      <trkpt lat="44.66679" lon="5.11213">
        <ele>667.29</ele>
        <time>2020-12-03T09:01:41Z</time>
      </trkpt>
      <trkpt lat="44.66673" lon="5.11219">
        <ele>669.7</ele>
        <time>2020-12-03T09:01:54Z</time>
      </trkpt>
      <trkpt lat="44.6667" lon="5.11224">
        <ele>670.66</ele>
        <time>2020-12-03T09:02:05Z</time>
      </trkpt>
      <trkpt lat="44.66677" lon="5.11241">
        <ele>677.39</ele>
        <time>2020-12-03T09:02:22Z</time>
      </trkpt>
      <trkpt lat="44.66681" lon="5.11245">
        <ele>681.71</ele>
        <time>2020-12-03T09:02:45Z</time>
      </trkpt>
      <trkpt lat="44.66676" lon="5.1125">
        <ele>681.71</ele>
        <time>2020-12-03T09:02:58Z</time>
      </trkpt>
      <trkpt lat="44.66675" lon="5.11255">
        <ele>682.19</ele>
        <time>2020-12-03T09:03:08Z</time>
      </trkpt>
      <trkpt lat="44.66673" lon="5.11269">
        <ele>683.15</ele>
        <time>2020-12-03T09:03:19Z</time>
      </trkpt>
      <trkpt lat="44.66671" lon="5.11276">
        <ele>685.56</ele>
        <time>2020-12-03T09:03:32Z</time>
      </trkpt>
      <trkpt lat="44.66669" lon="5.11283">
        <ele>686.04</ele>
        <time>2020-12-03T09:03:46Z</time>
      </trkpt>
      <trkpt lat="44.66668" lon="5.11294">
        <ele>687.48</ele>
        <time>2020-12-03T09:03:59Z</time>
      </trkpt>
      <trkpt lat="44.66663" lon="5.11305">
        <ele>687</ele>
        <time>2020-12-03T09:04:12Z</time>
      </trkpt>
      <trkpt lat="44.66657" lon="5.11316">
        <ele>684.6</ele>
        <time>2020-12-03T09:04:26Z</time>
      </trkpt>
      <trkpt lat="44.66651" lon="5.11322">
        <ele>684.12</ele>
        <time>2020-12-03T09:04:37Z</time>
      </trkpt>
      <trkpt lat="44.66648" lon="5.11333">
        <ele>686.52</ele>
        <time>2020-12-03T09:04:48Z</time>
      </trkpt>
      <trkpt lat="44.66645" lon="5.11344">
        <ele>688.44</ele>
        <time>2020-12-03T09:05:01Z</time>
      </trkpt>
      <trkpt lat="44.6664" lon="5.11351">
        <ele>689.88</ele>
        <time>2020-12-03T09:05:17Z</time>
      </trkpt>
      <trkpt lat="44.66639" lon="5.11355">
        <ele>693.25</ele>
        <time>2020-12-03T09:05:33Z</time>
      </trkpt>
      <trkpt lat="44.66636" lon="5.11357">
        <ele>695.65</ele>
        <time>2020-12-03T09:05:43Z</time>
      </trkpt>
      <trkpt lat="44.66631" lon="5.11367">
        <ele>698.05</ele>
        <time>2020-12-03T09:05:56Z</time>
      </trkpt>
      <trkpt lat="44.66635" lon="5.11377">
        <ele>701.9</ele>
        <time>2020-12-03T09:06:12Z</time>
      </trkpt>
      <trkpt lat="44.66621" lon="5.11383">
        <ele>697.57</ele>
        <time>2020-12-03T09:06:26Z</time>
      </trkpt>
      <trkpt lat="44.66614" lon="5.11391">
        <ele>698.05</ele>
        <time>2020-12-03T09:06:40Z</time>
      </trkpt>
      <trkpt lat="44.66613" lon="5.11403">
        <ele>699.98</ele>
        <time>2020-12-03T09:06:53Z</time>
      </trkpt>
      <trkpt lat="44.66607" lon="5.11411">
        <ele>701.9</ele>
        <time>2020-12-03T09:07:05Z</time>
      </trkpt>
      <trkpt lat="44.66602" lon="5.11417">
        <ele>702.86</ele>
        <time>2020-12-03T09:07:20Z</time>
      </trkpt>
      <trkpt lat="44.66596" lon="5.11421">
        <ele>706.23</ele>
        <time>2020-12-03T09:07:33Z</time>
      </trkpt>
      <trkpt lat="44.66592" lon="5.11429">
        <ele>708.63</ele>
        <time>2020-12-03T09:07:47Z</time>
      </trkpt>
      <trkpt lat="44.66588" lon="5.11424">
        <ele>708.15</ele>
        <time>2020-12-03T09:08:02Z</time>
      </trkpt>
      <trkpt lat="44.66585" lon="5.11424">
        <ele>710.55</ele>
        <time>2020-12-03T09:08:14Z</time>
      </trkpt>
      <trkpt lat="44.66585" lon="5.11436">
        <ele>714.4</ele>
        <time>2020-12-03T09:08:26Z</time>
      </trkpt>
      <trkpt lat="44.66575" lon="5.11438">
        <ele>713.92</ele>
        <time>2020-12-03T09:08:41Z</time>
      </trkpt>
      <trkpt lat="44.66576" lon="5.11447">
        <ele>712.47</ele>
        <time>2020-12-03T09:08:55Z</time>
      </trkpt>
      <trkpt lat="44.6657" lon="5.11448">
        <ele>713.92</ele>
        <time>2020-12-03T09:09:06Z</time>
      </trkpt>
      <trkpt lat="44.66565" lon="5.11452">
        <ele>715.84</ele>
        <time>2020-12-03T09:09:18Z</time>
      </trkpt>
      <trkpt lat="44.66562" lon="5.11456">
        <ele>717.76</ele>
        <time>2020-12-03T09:09:29Z</time>
      </trkpt>
      <trkpt lat="44.66558" lon="5.11467">
        <ele>716.8</ele>
        <time>2020-12-03T09:09:46Z</time>
      </trkpt>
      <trkpt lat="44.66553" lon="5.11468">
        <ele>717.28</ele>
        <time>2020-12-03T09:09:58Z</time>
      </trkpt>
      <trkpt lat="44.6655" lon="5.11473">
        <ele>720.65</ele>
        <time>2020-12-03T09:10:11Z</time>
      </trkpt>
      <trkpt lat="44.66548" lon="5.11477">
        <ele>723.53</ele>
        <time>2020-12-03T09:10:22Z</time>
      </trkpt>
      <trkpt lat="44.66546" lon="5.11481">
        <ele>728.82</ele>
        <time>2020-12-03T09:10:34Z</time>
      </trkpt>
      <trkpt lat="44.66547" lon="5.11488">
        <ele>735.55</ele>
        <time>2020-12-03T09:11:08Z</time>
      </trkpt>
      <trkpt lat="44.66541" lon="5.11491">
        <ele>736.03</ele>
        <time>2020-12-03T09:11:22Z</time>
      </trkpt>
      <trkpt lat="44.66536" lon="5.11498">
        <ele>737.47</ele>
        <time>2020-12-03T09:11:33Z</time>
      </trkpt>
      <trkpt lat="44.66532" lon="5.11505">
        <ele>738.91</ele>
        <time>2020-12-03T09:11:46Z</time>
      </trkpt>
      <trkpt lat="44.66525" lon="5.1152">
        <ele>738.43</ele>
        <time>2020-12-03T09:12:05Z</time>
      </trkpt>
      <trkpt lat="44.6652" lon="5.11521">
        <ele>738.91</ele>
        <time>2020-12-03T09:12:18Z</time>
      </trkpt>
      <trkpt lat="44.66515" lon="5.11522">
        <ele>737.95</ele>
        <time>2020-12-03T09:12:28Z</time>
      </trkpt>
      <trkpt lat="44.6651" lon="5.11527">
        <ele>737.95</ele>
        <time>2020-12-03T09:12:40Z</time>
      </trkpt>
      <trkpt lat="44.66511" lon="5.11533">
        <ele>739.39</ele>
        <time>2020-12-03T09:13:00Z</time>
      </trkpt>
      <trkpt lat="44.66508" lon="5.11539">
        <ele>744.2</ele>
        <time>2020-12-03T09:13:14Z</time>
      </trkpt>
      <trkpt lat="44.66501" lon="5.1155">
        <ele>745.64</ele>
        <time>2020-12-03T09:13:28Z</time>
      </trkpt>
      <trkpt lat="44.66496" lon="5.11556">
        <ele>746.6</ele>
        <time>2020-12-03T09:13:40Z</time>
      </trkpt>
      <trkpt lat="44.66491" lon="5.1156">
        <ele>749</ele>
        <time>2020-12-03T09:13:51Z</time>
      </trkpt>
      <trkpt lat="44.66485" lon="5.11567">
        <ele>749.97</ele>
        <time>2020-12-03T09:14:03Z</time>
      </trkpt>
      <trkpt lat="44.66482" lon="5.11568">
        <ele>753.33</ele>
        <time>2020-12-03T09:14:19Z</time>
      </trkpt>
      <trkpt lat="44.66484" lon="5.11573">
        <ele>753.81</ele>
        <time>2020-12-03T09:14:32Z</time>
      </trkpt>
      <trkpt lat="44.66484" lon="5.11572">
        <ele>753.33</ele>
        <time>2020-12-03T09:14:33Z</time>
      </trkpt>
      <trkpt lat="44.66482" lon="5.11565">
        <ele>752.37</ele>
        <time>2020-12-03T09:14:42Z</time>
      </trkpt>
      <trkpt lat="44.66484" lon="5.1156">
        <ele>752.85</ele>
        <time>2020-12-03T09:14:48Z</time>
      </trkpt>
      <trkpt lat="44.66483" lon="5.11552">
        <ele>755.25</ele>
        <time>2020-12-03T09:14:59Z</time>
      </trkpt>
      <trkpt lat="44.66489" lon="5.1154">
        <ele>757.66</ele>
        <time>2020-12-03T09:15:11Z</time>
      </trkpt>
      <trkpt lat="44.66495" lon="5.11529">
        <ele>758.62</ele>
        <time>2020-12-03T09:15:21Z</time>
      </trkpt>
      <trkpt lat="44.66497" lon="5.11527">
        <ele>758.62</ele>
        <time>2020-12-03T09:15:24Z</time>
      </trkpt>
      <trkpt lat="44.66499" lon="5.11509">
        <ele>758.14</ele>
        <time>2020-12-03T09:15:36Z</time>
      </trkpt>
      <trkpt lat="44.66499" lon="5.11502">
        <ele>758.14</ele>
        <time>2020-12-03T09:15:41Z</time>
      </trkpt>
      <trkpt lat="44.66503" lon="5.11486">
        <ele>757.18</ele>
        <time>2020-12-03T09:15:53Z</time>
      </trkpt>
      <trkpt lat="44.66508" lon="5.11473">
        <ele>758.14</ele>
        <time>2020-12-03T09:16:04Z</time>
      </trkpt>
      <trkpt lat="44.6651" lon="5.1146">
        <ele>758.14</ele>
        <time>2020-12-03T09:16:15Z</time>
      </trkpt>
      <trkpt lat="44.66512" lon="5.11449">
        <ele>758.62</ele>
        <time>2020-12-03T09:16:25Z</time>
      </trkpt>
      <trkpt lat="44.66511" lon="5.11438">
        <ele>761.5</ele>
        <time>2020-12-03T09:16:33Z</time>
      </trkpt>
      <trkpt lat="44.66517" lon="5.11425">
        <ele>760.54</ele>
        <time>2020-12-03T09:16:44Z</time>
      </trkpt>
      <trkpt lat="44.6652" lon="5.11411">
        <ele>757.66</ele>
        <time>2020-12-03T09:16:57Z</time>
      </trkpt>
      <trkpt lat="44.6652" lon="5.11399">
        <ele>760.06</ele>
        <time>2020-12-03T09:17:08Z</time>
      </trkpt>
      <trkpt lat="44.66524" lon="5.11392">
        <ele>761.98</ele>
        <time>2020-12-03T09:17:18Z</time>
      </trkpt>
      <trkpt lat="44.66529" lon="5.11381">
        <ele>764.87</ele>
        <time>2020-12-03T09:17:30Z</time>
      </trkpt>
      <trkpt lat="44.66529" lon="5.11365">
        <ele>767.75</ele>
        <time>2020-12-03T09:17:41Z</time>
      </trkpt>
      <trkpt lat="44.6653" lon="5.11357">
        <ele>767.27</ele>
        <time>2020-12-03T09:17:47Z</time>
      </trkpt>
      <trkpt lat="44.66529" lon="5.11346">
        <ele>768.23</ele>
        <time>2020-12-03T09:17:59Z</time>
      </trkpt>
      <trkpt lat="44.66531" lon="5.11332">
        <ele>769.67</ele>
        <time>2020-12-03T09:18:11Z</time>
      </trkpt>
      <trkpt lat="44.66531" lon="5.1132">
        <ele>772.56</ele>
        <time>2020-12-03T09:18:23Z</time>
      </trkpt>
      <trkpt lat="44.66534" lon="5.11315">
        <ele>772.56</ele>
        <time>2020-12-03T09:18:37Z</time>
      </trkpt>
      <trkpt lat="44.66537" lon="5.11306">
        <ele>772.56</ele>
        <time>2020-12-03T09:18:51Z</time>
      </trkpt>
      <trkpt lat="44.66534" lon="5.11296">
        <ele>775.92</ele>
        <time>2020-12-03T09:19:08Z</time>
      </trkpt>
      <trkpt lat="44.66534" lon="5.11292">
        <ele>778.81</ele>
        <time>2020-12-03T09:19:20Z</time>
      </trkpt>
      <trkpt lat="44.66536" lon="5.11284">
        <ele>780.73</ele>
        <time>2020-12-03T09:19:32Z</time>
      </trkpt>
      <trkpt lat="44.66535" lon="5.11274">
        <ele>784.57</ele>
        <time>2020-12-03T09:19:45Z</time>
      </trkpt>
      <trkpt lat="44.66535" lon="5.11261">
        <ele>786.02</ele>
        <time>2020-12-03T09:19:58Z</time>
      </trkpt>
      <trkpt lat="44.66536" lon="5.11249">
        <ele>787.94</ele>
        <time>2020-12-03T09:20:11Z</time>
      </trkpt>
      <trkpt lat="44.66537" lon="5.11245">
        <ele>789.38</ele>
        <time>2020-12-03T09:20:24Z</time>
      </trkpt>
      <trkpt lat="44.66532" lon="5.11237">
        <ele>791.3</ele>
        <time>2020-12-03T09:20:41Z</time>
      </trkpt>
      <trkpt lat="44.66532" lon="5.11225">
        <ele>788.9</ele>
        <time>2020-12-03T09:20:53Z</time>
      </trkpt>
      <trkpt lat="44.6653" lon="5.11216">
        <ele>791.78</ele>
        <time>2020-12-03T09:21:07Z</time>
      </trkpt>
      <trkpt lat="44.66531" lon="5.11206">
        <ele>793.71</ele>
        <time>2020-12-03T09:21:20Z</time>
      </trkpt>
      <trkpt lat="44.66529" lon="5.11195">
        <ele>798.51</ele>
        <time>2020-12-03T09:21:33Z</time>
      </trkpt>
      <trkpt lat="44.66531" lon="5.11186">
        <ele>799.47</ele>
        <time>2020-12-03T09:21:46Z</time>
      </trkpt>
      <trkpt lat="44.66531" lon="5.11174">
        <ele>799.47</ele>
        <time>2020-12-03T09:21:58Z</time>
      </trkpt>
      <trkpt lat="44.66533" lon="5.11166">
        <ele>800.92</ele>
        <time>2020-12-03T09:22:16Z</time>
      </trkpt>
      <trkpt lat="44.66529" lon="5.11152">
        <ele>800.44</ele>
        <time>2020-12-03T09:22:28Z</time>
      </trkpt>
      <trkpt lat="44.66531" lon="5.11141">
        <ele>801.4</ele>
        <time>2020-12-03T09:22:40Z</time>
      </trkpt>
      <trkpt lat="44.66532" lon="5.11129">
        <ele>802.36</ele>
        <time>2020-12-03T09:22:52Z</time>
      </trkpt>
      <trkpt lat="44.66531" lon="5.11119">
        <ele>802.84</ele>
        <time>2020-12-03T09:23:06Z</time>
      </trkpt>
      <trkpt lat="44.66529" lon="5.1111">
        <ele>805.72</ele>
        <time>2020-12-03T09:23:22Z</time>
      </trkpt>
      <trkpt lat="44.66532" lon="5.111">
        <ele>808.61</ele>
        <time>2020-12-03T09:23:37Z</time>
      </trkpt>
      <trkpt lat="44.66527" lon="5.11091">
        <ele>808.13</ele>
        <time>2020-12-03T09:23:55Z</time>
      </trkpt>
      <trkpt lat="44.66529" lon="5.11084">
        <ele>810.05</ele>
        <time>2020-12-03T09:24:13Z</time>
      </trkpt>
      <trkpt lat="44.66529" lon="5.11077">
        <ele>813.41</ele>
        <time>2020-12-03T09:24:23Z</time>
      </trkpt>
      <trkpt lat="44.66531" lon="5.11069">
        <ele>814.37</ele>
        <time>2020-12-03T09:24:35Z</time>
      </trkpt>
      <trkpt lat="44.6653" lon="5.11059">
        <ele>814.37</ele>
        <time>2020-12-03T09:24:46Z</time>
      </trkpt>
      <trkpt lat="44.66527" lon="5.11053">
        <ele>815.82</ele>
        <time>2020-12-03T09:24:57Z</time>
      </trkpt>
      <trkpt lat="44.66526" lon="5.11042">
        <ele>820.62</ele>
        <time>2020-12-03T09:25:09Z</time>
      </trkpt>
      <trkpt lat="44.6653" lon="5.11031">
        <ele>823.51</ele>
        <time>2020-12-03T09:25:21Z</time>
      </trkpt>
      <trkpt lat="44.66532" lon="5.11019">
        <ele>824.95</ele>
        <time>2020-12-03T09:25:33Z</time>
      </trkpt>
      <trkpt lat="44.66533" lon="5.11011">
        <ele>826.39</ele>
        <time>2020-12-03T09:25:46Z</time>
      </trkpt>
      <trkpt lat="44.66532" lon="5.11002">
        <ele>826.87</ele>
        <time>2020-12-03T09:25:59Z</time>
      </trkpt>
      <trkpt lat="44.66533" lon="5.10991">
        <ele>826.39</ele>
        <time>2020-12-03T09:26:10Z</time>
      </trkpt>
      <trkpt lat="44.66529" lon="5.10986">
        <ele>823.51</ele>
        <time>2020-12-03T09:26:25Z</time>
      </trkpt>
      <trkpt lat="44.66528" lon="5.10975">
        <ele>827.83</ele>
        <time>2020-12-03T09:26:38Z</time>
      </trkpt>
      <trkpt lat="44.66533" lon="5.10962">
        <ele>828.79</ele>
        <time>2020-12-03T09:26:57Z</time>
      </trkpt>
      <trkpt lat="44.66531" lon="5.10954">
        <ele>830.72</ele>
        <time>2020-12-03T09:27:09Z</time>
      </trkpt>
      <trkpt lat="44.6653" lon="5.10947">
        <ele>832.64</ele>
        <time>2020-12-03T09:27:27Z</time>
      </trkpt>
      <trkpt lat="44.66527" lon="5.10938">
        <ele>834.08</ele>
        <time>2020-12-03T09:27:38Z</time>
      </trkpt>
      <trkpt lat="44.66523" lon="5.10927">
        <ele>834.56</ele>
        <time>2020-12-03T09:27:49Z</time>
      </trkpt>
      <trkpt lat="44.66519" lon="5.10916">
        <ele>836.96</ele>
        <time>2020-12-03T09:28:02Z</time>
      </trkpt>
      <trkpt lat="44.66515" lon="5.10911">
        <ele>843.69</ele>
        <time>2020-12-03T09:28:17Z</time>
      </trkpt>
      <trkpt lat="44.66505" lon="5.10913">
        <ele>849.46</ele>
        <time>2020-12-03T09:28:33Z</time>
      </trkpt>
      <trkpt lat="44.66499" lon="5.10925">
        <ele>849.94</ele>
        <time>2020-12-03T09:28:49Z</time>
      </trkpt>
      <trkpt lat="44.66489" lon="5.10939">
        <ele>848.98</ele>
        <time>2020-12-03T09:29:04Z</time>
      </trkpt>
      <trkpt lat="44.66485" lon="5.10956">
        <ele>848.98</ele>
        <time>2020-12-03T09:29:20Z</time>
      </trkpt>
      <trkpt lat="44.66491" lon="5.10954">
        <ele>851.38</ele>
        <time>2020-12-03T09:29:40Z</time>
      </trkpt>
      <trkpt lat="44.66492" lon="5.10962">
        <ele>853.31</ele>
        <time>2020-12-03T09:30:11Z</time>
      </trkpt>
      <trkpt lat="44.66484" lon="5.1097">
        <ele>851.87</ele>
        <time>2020-12-03T09:30:35Z</time>
      </trkpt>
      <trkpt lat="44.6648" lon="5.10987">
        <ele>847.06</ele>
        <time>2020-12-03T09:30:53Z</time>
      </trkpt>
      <trkpt lat="44.66476" lon="5.11007">
        <ele>835.04</ele>
        <time>2020-12-03T09:31:08Z</time>
      </trkpt>
      <trkpt lat="44.66477" lon="5.11019">
        <ele>835.04</ele>
        <time>2020-12-03T09:31:24Z</time>
      </trkpt>
      <trkpt lat="44.66485" lon="5.11023">
        <ele>843.69</ele>
        <time>2020-12-03T09:31:40Z</time>
      </trkpt>
      <trkpt lat="44.66486" lon="5.11023">
        <ele>847.06</ele>
        <time>2020-12-03T09:32:16Z</time>
      </trkpt>
      <trkpt lat="44.66488" lon="5.11035">
        <ele>843.21</ele>
        <time>2020-12-03T09:32:49Z</time>
      </trkpt>
      <trkpt lat="44.66479" lon="5.11011">
        <ele>842.25</ele>
        <time>2020-12-03T09:33:08Z</time>
      </trkpt>
      <trkpt lat="44.66476" lon="5.1099">
        <ele>844.66</ele>
        <time>2020-12-03T09:33:28Z</time>
      </trkpt>
      <trkpt lat="44.66474" lon="5.1098">
        <ele>844.18</ele>
        <time>2020-12-03T09:33:44Z</time>
      </trkpt>
      <trkpt lat="44.66472" lon="5.10986">
        <ele>842.73</ele>
        <time>2020-12-03T09:34:05Z</time>
      </trkpt>
      <trkpt lat="44.66471" lon="5.10984">
        <ele>844.18</ele>
        <time>2020-12-03T09:34:16Z</time>
      </trkpt>
      <trkpt lat="44.66466" lon="5.10988">
        <ele>842.25</ele>
        <time>2020-12-03T09:34:28Z</time>
      </trkpt>
      <trkpt lat="44.66467" lon="5.10994">
        <ele>846.58</ele>
        <time>2020-12-03T09:34:40Z</time>
      </trkpt>
      <trkpt lat="44.66464" lon="5.1101">
        <ele>849.46</ele>
        <time>2020-12-03T09:34:53Z</time>
      </trkpt>
      <trkpt lat="44.66461" lon="5.11016">
        <ele>851.38</ele>
        <time>2020-12-03T09:35:04Z</time>
      </trkpt>
      <trkpt lat="44.66461" lon="5.11025">
        <ele>855.71</ele>
        <time>2020-12-03T09:35:17Z</time>
      </trkpt>
      <trkpt lat="44.66463" lon="5.11039">
        <ele>861</ele>
        <time>2020-12-03T09:35:29Z</time>
      </trkpt>
      <trkpt lat="44.66464" lon="5.11039">
        <ele>865.32</ele>
        <time>2020-12-03T09:35:42Z</time>
      </trkpt>
      <trkpt lat="44.6646" lon="5.11039">
        <ele>865.32</ele>
        <time>2020-12-03T09:35:51Z</time>
      </trkpt>
      <trkpt lat="44.66454" lon="5.11037">
        <ele>857.63</ele>
        <time>2020-12-03T09:36:02Z</time>
      </trkpt>
      <trkpt lat="44.66453" lon="5.11029">
        <ele>857.63</ele>
        <time>2020-12-03T09:36:12Z</time>
      </trkpt>
      <trkpt lat="44.66452" lon="5.11018">
        <ele>856.19</ele>
        <time>2020-12-03T09:36:22Z</time>
      </trkpt>
      <trkpt lat="44.66449" lon="5.11009">
        <ele>854.27</ele>
        <time>2020-12-03T09:36:34Z</time>
      </trkpt>
      <trkpt lat="44.66444" lon="5.11015">
        <ele>852.35</ele>
        <time>2020-12-03T09:36:49Z</time>
      </trkpt>
      <trkpt lat="44.66439" lon="5.11016">
        <ele>854.27</ele>
        <time>2020-12-03T09:37:04Z</time>
      </trkpt>
      <trkpt lat="44.66436" lon="5.11024">
        <ele>855.71</ele>
        <time>2020-12-03T09:37:27Z</time>
      </trkpt>
      <trkpt lat="44.66442" lon="5.11025">
        <ele>856.19</ele>
        <time>2020-12-03T09:37:43Z</time>
      </trkpt>
      <trkpt lat="44.66442" lon="5.11038">
        <ele>856.67</ele>
        <time>2020-12-03T09:37:58Z</time>
      </trkpt>
      <trkpt lat="44.66439" lon="5.11041">
        <ele>858.59</ele>
        <time>2020-12-03T09:38:14Z</time>
      </trkpt>
      <trkpt lat="44.66437" lon="5.11036">
        <ele>860.04</ele>
        <time>2020-12-03T09:38:24Z</time>
      </trkpt>
      <trkpt lat="44.66437" lon="5.11043">
        <ele>861.96</ele>
        <time>2020-12-03T09:38:37Z</time>
      </trkpt>
      <trkpt lat="44.6644" lon="5.11059">
        <ele>862.92</ele>
        <time>2020-12-03T09:39:18Z</time>
      </trkpt>
      <trkpt lat="44.66436" lon="5.11044">
        <ele>859.08</ele>
        <time>2020-12-03T09:39:48Z</time>
      </trkpt>
      <trkpt lat="44.66439" lon="5.11035">
        <ele>856.19</ele>
        <time>2020-12-03T09:40:14Z</time>
      </trkpt>
      <trkpt lat="44.66435" lon="5.11036">
        <ele>861.48</ele>
        <time>2020-12-03T09:40:30Z</time>
      </trkpt>
      <trkpt lat="44.66432" lon="5.11034">
        <ele>860.52</ele>
        <time>2020-12-03T09:40:40Z</time>
      </trkpt>
      <trkpt lat="44.66434" lon="5.11032">
        <ele>861</ele>
        <time>2020-12-03T09:40:55Z</time>
      </trkpt>
      <trkpt lat="44.66434" lon="5.11032">
        <ele>860.52</ele>
        <time>2020-12-03T09:41:14Z</time>
      </trkpt>
      <trkpt lat="44.66437" lon="5.11036">
        <ele>861.96</ele>
        <time>2020-12-03T09:41:33Z</time>
      </trkpt>
      <trkpt lat="44.66438" lon="5.11036">
        <ele>860.04</ele>
        <time>2020-12-03T09:41:51Z</time>
      </trkpt>
      <trkpt lat="44.6644" lon="5.11036">
        <ele>861</ele>
        <time>2020-12-03T09:42:10Z</time>
      </trkpt>
      <trkpt lat="44.66437" lon="5.11035">
        <ele>862.44</ele>
        <time>2020-12-03T09:42:34Z</time>
      </trkpt>
      <trkpt lat="44.66438" lon="5.11034">
        <ele>860.52</ele>
        <time>2020-12-03T09:42:55Z</time>
      </trkpt>
      <trkpt lat="44.66438" lon="5.11034">
        <ele>861.48</ele>
        <time>2020-12-03T09:43:21Z</time>
      </trkpt>
      <trkpt lat="44.66437" lon="5.11035">
        <ele>861.48</ele>
        <time>2020-12-03T09:43:24Z</time>
      </trkpt>
      <trkpt lat="44.6643" lon="5.11035">
        <ele>860.52</ele>
        <time>2020-12-03T09:43:35Z</time>
      </trkpt>
      <trkpt lat="44.66427" lon="5.11037">
        <ele>859.56</ele>
        <time>2020-12-03T09:43:47Z</time>
      </trkpt>
      <trkpt lat="44.66424" lon="5.11036">
        <ele>858.59</ele>
        <time>2020-12-03T09:44:06Z</time>
      </trkpt>
      <trkpt lat="44.66424" lon="5.11036">
        <ele>857.63</ele>
        <time>2020-12-03T09:44:26Z</time>
      </trkpt>
      <trkpt lat="44.66426" lon="5.11043">
        <ele>858.59</ele>
        <time>2020-12-03T09:44:42Z</time>
      </trkpt>
      <trkpt lat="44.66429" lon="5.11049">
        <ele>858.59</ele>
        <time>2020-12-03T09:44:53Z</time>
      </trkpt>
      <trkpt lat="44.6643" lon="5.1105">
        <ele>858.11</ele>
        <time>2020-12-03T09:44:57Z</time>
      </trkpt>
      <trkpt lat="44.66432" lon="5.11056">
        <ele>859.56</ele>
        <time>2020-12-03T09:45:09Z</time>
      </trkpt>
      <trkpt lat="44.66432" lon="5.11056">
        <ele>859.56</ele>
        <time>2020-12-03T09:45:23Z</time>
      </trkpt>
      <trkpt lat="44.66429" lon="5.11051">
        <ele>859.56</ele>
        <time>2020-12-03T09:45:33Z</time>
      </trkpt>
      <trkpt lat="44.66426" lon="5.11044">
        <ele>859.08</ele>
        <time>2020-12-03T09:45:41Z</time>
      </trkpt>
      <trkpt lat="44.66425" lon="5.11038">
        <ele>859.08</ele>
        <time>2020-12-03T09:45:47Z</time>
      </trkpt>
      <trkpt lat="44.66427" lon="5.11036">
        <ele>858.59</ele>
        <time>2020-12-03T09:45:58Z</time>
      </trkpt>
      <trkpt lat="44.6643" lon="5.11035">
        <ele>858.59</ele>
        <time>2020-12-03T09:46:06Z</time>
      </trkpt>
      <trkpt lat="44.66435" lon="5.11038">
        <ele>859.56</ele>
        <time>2020-12-03T09:46:18Z</time>
      </trkpt>
      <trkpt lat="44.66436" lon="5.11039">
        <ele>860.04</ele>
        <time>2020-12-03T09:46:29Z</time>
      </trkpt>
      <trkpt lat="44.66435" lon="5.11036">
        <ele>860.52</ele>
        <time>2020-12-03T09:46:32Z</time>
      </trkpt>
      <trkpt lat="44.66434" lon="5.11033">
        <ele>859.56</ele>
        <time>2020-12-03T09:46:38Z</time>
      </trkpt>
      <trkpt lat="44.66439" lon="5.11033">
        <ele>858.59</ele>
        <time>2020-12-03T09:46:52Z</time>
      </trkpt>
      <trkpt lat="44.6644" lon="5.11032">
        <ele>858.11</ele>
        <time>2020-12-03T09:47:10Z</time>
      </trkpt>
      <trkpt lat="44.6644" lon="5.1103">
        <ele>858.11</ele>
        <time>2020-12-03T09:47:32Z</time>
      </trkpt>
      <trkpt lat="44.6644" lon="5.1103">
        <ele>857.15</ele>
        <time>2020-12-03T09:47:45Z</time>
      </trkpt>
      <trkpt lat="44.6644" lon="5.11028">
        <ele>854.75</ele>
        <time>2020-12-03T09:47:56Z</time>
      </trkpt>
      <trkpt lat="44.66444" lon="5.1102">
        <ele>852.83</ele>
        <time>2020-12-03T09:48:13Z</time>
      </trkpt>
      <trkpt lat="44.66448" lon="5.11016">
        <ele>848.98</ele>
        <time>2020-12-03T09:48:30Z</time>
      </trkpt>
      <trkpt lat="44.66448" lon="5.11009">
        <ele>848.98</ele>
        <time>2020-12-03T09:48:44Z</time>
      </trkpt>
      <trkpt lat="44.66451" lon="5.11022">
        <ele>846.58</ele>
        <time>2020-12-03T09:49:01Z</time>
      </trkpt>
      <trkpt lat="44.66448" lon="5.11039">
        <ele>842.73</ele>
        <time>2020-12-03T09:49:21Z</time>
      </trkpt>
      <trkpt lat="44.66456" lon="5.11045">
        <ele>839.37</ele>
        <time>2020-12-03T09:49:42Z</time>
      </trkpt>
      <trkpt lat="44.66459" lon="5.11023">
        <ele>837.45</ele>
        <time>2020-12-03T09:50:00Z</time>
      </trkpt>
      <trkpt lat="44.66467" lon="5.11002">
        <ele>831.68</ele>
        <time>2020-12-03T09:50:18Z</time>
      </trkpt>
      <trkpt lat="44.66466" lon="5.10989">
        <ele>833.12</ele>
        <time>2020-12-03T09:50:35Z</time>
      </trkpt>
      <trkpt lat="44.66466" lon="5.1098">
        <ele>830.72</ele>
        <time>2020-12-03T09:50:50Z</time>
      </trkpt>
      <trkpt lat="44.66469" lon="5.10974">
        <ele>828.31</ele>
        <time>2020-12-03T09:51:07Z</time>
      </trkpt>
      <trkpt lat="44.66472" lon="5.10969">
        <ele>827.35</ele>
        <time>2020-12-03T09:51:12Z</time>
      </trkpt>
      <trkpt lat="44.66484" lon="5.10946">
        <ele>826.87</ele>
        <time>2020-12-03T09:51:29Z</time>
      </trkpt>
      <trkpt lat="44.66493" lon="5.10918">
        <ele>828.31</ele>
        <time>2020-12-03T09:51:48Z</time>
      </trkpt>
      <trkpt lat="44.66505" lon="5.1091">
        <ele>825.43</ele>
        <time>2020-12-03T09:52:02Z</time>
      </trkpt>
      <trkpt lat="44.66513" lon="5.10909">
        <ele>822.55</ele>
        <time>2020-12-03T09:52:15Z</time>
      </trkpt>
      <trkpt lat="44.66515" lon="5.10906">
        <ele>820.14</ele>
        <time>2020-12-03T09:52:29Z</time>
      </trkpt>
      <trkpt lat="44.6652" lon="5.10888">
        <ele>812.93</ele>
        <time>2020-12-03T09:52:50Z</time>
      </trkpt>
      <trkpt lat="44.66528" lon="5.10875">
        <ele>810.53</ele>
        <time>2020-12-03T09:53:07Z</time>
      </trkpt>
      <trkpt lat="44.66535" lon="5.10861">
        <ele>809.09</ele>
        <time>2020-12-03T09:53:28Z</time>
      </trkpt>
      <trkpt lat="44.66535" lon="5.10851">
        <ele>807.64</ele>
        <time>2020-12-03T09:53:40Z</time>
      </trkpt>
      <trkpt lat="44.66538" lon="5.10841">
        <ele>803.32</ele>
        <time>2020-12-03T09:53:55Z</time>
      </trkpt>
      <trkpt lat="44.6654" lon="5.10833">
        <ele>799.95</ele>
        <time>2020-12-03T09:54:10Z</time>
      </trkpt>
      <trkpt lat="44.66542" lon="5.10817">
        <ele>791.78</ele>
        <time>2020-12-03T09:54:29Z</time>
      </trkpt>
      <trkpt lat="44.66548" lon="5.10804">
        <ele>787.46</ele>
        <time>2020-12-03T09:54:48Z</time>
      </trkpt>
      <trkpt lat="44.66552" lon="5.10782">
        <ele>786.5</ele>
        <time>2020-12-03T09:55:11Z</time>
      </trkpt>
      <trkpt lat="44.66558" lon="5.10781">
        <ele>786.02</ele>
        <time>2020-12-03T09:55:24Z</time>
      </trkpt>
      <trkpt lat="44.6656" lon="5.10774">
        <ele>785.05</ele>
        <time>2020-12-03T09:55:39Z</time>
      </trkpt>
      <trkpt lat="44.6656" lon="5.10767">
        <ele>783.13</ele>
        <time>2020-12-03T09:55:52Z</time>
      </trkpt>
      <trkpt lat="44.66562" lon="5.1076">
        <ele>781.69</ele>
        <time>2020-12-03T09:56:08Z</time>
      </trkpt>
      <trkpt lat="44.66565" lon="5.10755">
        <ele>778.81</ele>
        <time>2020-12-03T09:56:25Z</time>
      </trkpt>
      <trkpt lat="44.66569" lon="5.10751">
        <ele>777.84</ele>
        <time>2020-12-03T09:56:38Z</time>
      </trkpt>
      <trkpt lat="44.6657" lon="5.10745">
        <ele>776.88</ele>
        <time>2020-12-03T09:56:53Z</time>
      </trkpt>
      <trkpt lat="44.66573" lon="5.10739">
        <ele>776.4</ele>
        <time>2020-12-03T09:57:07Z</time>
      </trkpt>
      <trkpt lat="44.66573" lon="5.10735">
        <ele>774.96</ele>
        <time>2020-12-03T09:57:20Z</time>
      </trkpt>
      <trkpt lat="44.66573" lon="5.10724">
        <ele>771.6</ele>
        <time>2020-12-03T09:57:38Z</time>
      </trkpt>
      <trkpt lat="44.66574" lon="5.10715">
        <ele>767.75</ele>
        <time>2020-12-03T09:57:50Z</time>
      </trkpt>
      <trkpt lat="44.66575" lon="5.10703">
        <ele>761.02</ele>
        <time>2020-12-03T09:58:08Z</time>
      </trkpt>
      <trkpt lat="44.6658" lon="5.10695">
        <ele>757.66</ele>
        <time>2020-12-03T09:58:22Z</time>
      </trkpt>
      <trkpt lat="44.66585" lon="5.10694">
        <ele>757.66</ele>
        <time>2020-12-03T09:58:36Z</time>
      </trkpt>
      <trkpt lat="44.66584" lon="5.10689">
        <ele>755.25</ele>
        <time>2020-12-03T09:58:49Z</time>
      </trkpt>
      <trkpt lat="44.66585" lon="5.10685">
        <ele>752.85</ele>
        <time>2020-12-03T09:59:03Z</time>
      </trkpt>
      <trkpt lat="44.66588" lon="5.10675">
        <ele>747.08</ele>
        <time>2020-12-03T09:59:22Z</time>
      </trkpt>
      <trkpt lat="44.6659" lon="5.10674">
        <ele>744.68</ele>
        <time>2020-12-03T09:59:37Z</time>
      </trkpt>
      <trkpt lat="44.66592" lon="5.1068">
        <ele>739.87</ele>
        <time>2020-12-03T10:00:01Z</time>
      </trkpt>
      <trkpt lat="44.666" lon="5.10671">
        <ele>742.28</ele>
        <time>2020-12-03T10:00:18Z</time>
      </trkpt>
      <trkpt lat="44.66603" lon="5.10653">
        <ele>743.72</ele>
        <time>2020-12-03T10:00:37Z</time>
      </trkpt>
      <trkpt lat="44.66612" lon="5.10639">
        <ele>743.24</ele>
        <time>2020-12-03T10:00:53Z</time>
      </trkpt>
      <trkpt lat="44.6662" lon="5.10622">
        <ele>740.83</ele>
        <time>2020-12-03T10:01:12Z</time>
      </trkpt>
      <trkpt lat="44.66626" lon="5.10601">
        <ele>739.39</ele>
        <time>2020-12-03T10:01:31Z</time>
      </trkpt>
      <trkpt lat="44.66626" lon="5.10578">
        <ele>736.51</ele>
        <time>2020-12-03T10:01:47Z</time>
      </trkpt>
      <trkpt lat="44.66627" lon="5.10562">
        <ele>731.7</ele>
        <time>2020-12-03T10:02:07Z</time>
      </trkpt>
      <trkpt lat="44.66634" lon="5.10548">
        <ele>727.86</ele>
        <time>2020-12-03T10:02:23Z</time>
      </trkpt>
      <trkpt lat="44.66637" lon="5.10537">
        <ele>726.89</ele>
        <time>2020-12-03T10:02:35Z</time>
      </trkpt>
      <trkpt lat="44.66637" lon="5.10531">
        <ele>724.01</ele>
        <time>2020-12-03T10:02:49Z</time>
      </trkpt>
      <trkpt lat="44.66639" lon="5.1052">
        <ele>720.16</ele>
        <time>2020-12-03T10:03:09Z</time>
      </trkpt>
      <trkpt lat="44.66645" lon="5.10503">
        <ele>718.72</ele>
        <time>2020-12-03T10:03:29Z</time>
      </trkpt>
      <trkpt lat="44.66654" lon="5.10487">
        <ele>713.92</ele>
        <time>2020-12-03T10:03:51Z</time>
      </trkpt>
      <trkpt lat="44.66651" lon="5.1048">
        <ele>708.15</ele>
        <time>2020-12-03T10:04:09Z</time>
      </trkpt>
      <trkpt lat="44.66659" lon="5.10467">
        <ele>707.67</ele>
        <time>2020-12-03T10:04:22Z</time>
      </trkpt>
      <trkpt lat="44.66664" lon="5.10445">
        <ele>696.61</ele>
        <time>2020-12-03T10:04:42Z</time>
      </trkpt>
      <trkpt lat="44.66674" lon="5.10423">
        <ele>688.44</ele>
        <time>2020-12-03T10:05:05Z</time>
      </trkpt>
      <trkpt lat="44.66679" lon="5.10412">
        <ele>685.56</ele>
        <time>2020-12-03T10:05:25Z</time>
      </trkpt>
      <trkpt lat="44.66674" lon="5.10403">
        <ele>687</ele>
        <time>2020-12-03T10:05:48Z</time>
      </trkpt>
      <trkpt lat="44.66666" lon="5.10394">
        <ele>691.81</ele>
        <time>2020-12-03T10:06:05Z</time>
      </trkpt>
      <trkpt lat="44.66656" lon="5.10391">
        <ele>693.73</ele>
        <time>2020-12-03T10:06:24Z</time>
      </trkpt>
      <trkpt lat="44.66641" lon="5.10397">
        <ele>692.29</ele>
        <time>2020-12-03T10:06:42Z</time>
      </trkpt>
      <trkpt lat="44.66628" lon="5.10404">
        <ele>692.77</ele>
        <time>2020-12-03T10:06:59Z</time>
      </trkpt>
      <trkpt lat="44.66621" lon="5.10405">
        <ele>693.73</ele>
        <time>2020-12-03T10:07:16Z</time>
      </trkpt>
      <trkpt lat="44.66622" lon="5.10402">
        <ele>696.13</ele>
        <time>2020-12-03T10:07:33Z</time>
      </trkpt>
      <trkpt lat="44.66631" lon="5.104">
        <ele>696.13</ele>
        <time>2020-12-03T10:07:50Z</time>
      </trkpt>
      <trkpt lat="44.66648" lon="5.10393">
        <ele>696.13</ele>
        <time>2020-12-03T10:08:13Z</time>
      </trkpt>
      <trkpt lat="44.66664" lon="5.10396">
        <ele>696.61</ele>
        <time>2020-12-03T10:08:32Z</time>
      </trkpt>
      <trkpt lat="44.66675" lon="5.10407">
        <ele>691.81</ele>
        <time>2020-12-03T10:08:54Z</time>
      </trkpt>
      <trkpt lat="44.66679" lon="5.10416">
        <ele>691.33</ele>
        <time>2020-12-03T10:09:16Z</time>
      </trkpt>
      <trkpt lat="44.66692" lon="5.10405">
        <ele>690.36</ele>
        <time>2020-12-03T10:09:37Z</time>
      </trkpt>
      <trkpt lat="44.6669" lon="5.10413">
        <ele>681.23</ele>
        <time>2020-12-03T10:09:58Z</time>
      </trkpt>
      <trkpt lat="44.66697" lon="5.10425">
        <ele>672.58</ele>
        <time>2020-12-03T10:10:23Z</time>
      </trkpt>
      <trkpt lat="44.66691" lon="5.10441">
        <ele>664.41</ele>
        <time>2020-12-03T10:10:50Z</time>
      </trkpt>
      <trkpt lat="44.667" lon="5.10467">
        <ele>669.22</ele>
        <time>2020-12-03T10:11:20Z</time>
      </trkpt>
      <trkpt lat="44.66703" lon="5.10477">
        <ele>665.85</ele>
        <time>2020-12-03T10:11:45Z</time>
      </trkpt>
      <trkpt lat="44.66711" lon="5.10483">
        <ele>667.29</ele>
        <time>2020-12-03T10:12:05Z</time>
      </trkpt>
      <trkpt lat="44.66715" lon="5.10461">
        <ele>663.45</ele>
        <time>2020-12-03T10:12:18Z</time>
      </trkpt>
      <trkpt lat="44.66724" lon="5.10447">
        <ele>662.01</ele>
        <time>2020-12-03T10:12:29Z</time>
      </trkpt>
      <trkpt lat="44.6673" lon="5.10432">
        <ele>661.04</ele>
        <time>2020-12-03T10:12:43Z</time>
      </trkpt>
      <trkpt lat="44.66736" lon="5.10401">
        <ele>659.6</ele>
        <time>2020-12-03T10:13:01Z</time>
      </trkpt>
      <trkpt lat="44.66737" lon="5.10371">
        <ele>656.72</ele>
        <time>2020-12-03T10:13:23Z</time>
      </trkpt>
      <trkpt lat="44.6674" lon="5.10345">
        <ele>653.35</ele>
        <time>2020-12-03T10:13:42Z</time>
      </trkpt>
      <trkpt lat="44.66746" lon="5.10315">
        <ele>649.99</ele>
        <time>2020-12-03T10:14:02Z</time>
      </trkpt>
      <trkpt lat="44.66749" lon="5.10292">
        <ele>653.35</ele>
        <time>2020-12-03T10:14:20Z</time>
      </trkpt>
      <trkpt lat="44.66751" lon="5.10279">
        <ele>650.47</ele>
        <time>2020-12-03T10:14:40Z</time>
      </trkpt>
      <trkpt lat="44.66749" lon="5.1026">
        <ele>654.8</ele>
        <time>2020-12-03T10:15:10Z</time>
      </trkpt>
      <trkpt lat="44.66753" lon="5.10252">
        <ele>656.72</ele>
        <time>2020-12-03T10:15:19Z</time>
      </trkpt>
      <trkpt lat="44.66756" lon="5.10235">
        <ele>661.04</ele>
        <time>2020-12-03T10:15:35Z</time>
      </trkpt>
      <trkpt lat="44.66761" lon="5.10214">
        <ele>657.68</ele>
        <time>2020-12-03T10:15:55Z</time>
      </trkpt>
      <trkpt lat="44.66766" lon="5.10206">
        <ele>662.49</ele>
        <time>2020-12-03T10:16:17Z</time>
      </trkpt>
      <trkpt lat="44.6677" lon="5.10196">
        <ele>664.41</ele>
        <time>2020-12-03T10:16:32Z</time>
      </trkpt>
      <trkpt lat="44.66776" lon="5.10178">
        <ele>666.33</ele>
        <time>2020-12-03T10:16:51Z</time>
      </trkpt>
      <trkpt lat="44.66782" lon="5.10159">
        <ele>668.73</ele>
        <time>2020-12-03T10:17:09Z</time>
      </trkpt>
      <trkpt lat="44.66794" lon="5.10143">
        <ele>671.14</ele>
        <time>2020-12-03T10:17:30Z</time>
      </trkpt>
      <trkpt lat="44.66796" lon="5.10141">
        <ele>675.94</ele>
        <time>2020-12-03T10:17:54Z</time>
      </trkpt>
      <trkpt lat="44.66796" lon="5.10144">
        <ele>678.35</ele>
        <time>2020-12-03T10:18:16Z</time>
      </trkpt>
      <trkpt lat="44.66794" lon="5.10144">
        <ele>681.71</ele>
        <time>2020-12-03T10:18:44Z</time>
      </trkpt>
      <trkpt lat="44.66797" lon="5.10141">
        <ele>683.15</ele>
        <time>2020-12-03T10:19:03Z</time>
      </trkpt>
      <trkpt lat="44.66804" lon="5.10128">
        <ele>681.71</ele>
        <time>2020-12-03T10:19:21Z</time>
      </trkpt>
      <trkpt lat="44.66805" lon="5.10126">
        <ele>683.15</ele>
        <time>2020-12-03T10:19:41Z</time>
      </trkpt>
      <trkpt lat="44.66809" lon="5.10123">
        <ele>683.63</ele>
        <time>2020-12-03T10:20:10Z</time>
      </trkpt>
      <trkpt lat="44.66818" lon="5.10108">
        <ele>686.52</ele>
        <time>2020-12-03T10:20:32Z</time>
      </trkpt>
      <trkpt lat="44.66824" lon="5.10096">
        <ele>690.84</ele>
        <time>2020-12-03T10:20:55Z</time>
      </trkpt>
      <trkpt lat="44.66829" lon="5.10088">
        <ele>694.21</ele>
        <time>2020-12-03T10:21:12Z</time>
      </trkpt>
      <trkpt lat="44.6683" lon="5.10079">
        <ele>696.13</ele>
        <time>2020-12-03T10:21:27Z</time>
      </trkpt>
      <trkpt lat="44.66838" lon="5.10065">
        <ele>698.05</ele>
        <time>2020-12-03T10:21:47Z</time>
      </trkpt>
      <trkpt lat="44.6684" lon="5.10064">
        <ele>701.42</ele>
        <time>2020-12-03T10:22:02Z</time>
      </trkpt>
      <trkpt lat="44.66833" lon="5.10066">
        <ele>701.42</ele>
        <time>2020-12-03T10:22:15Z</time>
      </trkpt>
      <trkpt lat="44.66827" lon="5.10065">
        <ele>700.46</ele>
        <time>2020-12-03T10:22:35Z</time>
      </trkpt>
      <trkpt lat="44.66828" lon="5.10069">
        <ele>699.5</ele>
        <time>2020-12-03T10:22:59Z</time>
      </trkpt>
      <trkpt lat="44.66828" lon="5.10072">
        <ele>704.78</ele>
        <time>2020-12-03T10:23:36Z</time>
      </trkpt>
      <trkpt lat="44.66828" lon="5.10072">
        <ele>704.3</ele>
        <time>2020-12-03T10:23:58Z</time>
      </trkpt>
      <trkpt lat="44.66826" lon="5.1007">
        <ele>702.38</ele>
        <time>2020-12-03T10:24:20Z</time>
      </trkpt>
      <trkpt lat="44.66821" lon="5.1007">
        <ele>701.9</ele>
        <time>2020-12-03T10:24:31Z</time>
      </trkpt>
      <trkpt lat="44.66815" lon="5.10071">
        <ele>700.94</ele>
        <time>2020-12-03T10:24:46Z</time>
      </trkpt>
      <trkpt lat="44.66812" lon="5.10066">
        <ele>704.3</ele>
        <time>2020-12-03T10:24:57Z</time>
      </trkpt>
      <trkpt lat="44.66816" lon="5.10051">
        <ele>707.19</ele>
        <time>2020-12-03T10:25:13Z</time>
      </trkpt>
      <trkpt lat="44.66816" lon="5.10049">
        <ele>708.63</ele>
        <time>2020-12-03T10:25:28Z</time>
      </trkpt>
      <trkpt lat="44.66816" lon="5.10049">
        <ele>709.59</ele>
        <time>2020-12-03T10:25:49Z</time>
      </trkpt>
      <trkpt lat="44.6682" lon="5.10043">
        <ele>711.03</ele>
        <time>2020-12-03T10:26:08Z</time>
      </trkpt>
      <trkpt lat="44.66827" lon="5.10037">
        <ele>710.07</ele>
        <time>2020-12-03T10:26:23Z</time>
      </trkpt>
      <trkpt lat="44.66833" lon="5.10021">
        <ele>709.59</ele>
        <time>2020-12-03T10:26:41Z</time>
      </trkpt>
      <trkpt lat="44.66834" lon="5.10017">
        <ele>709.11</ele>
        <time>2020-12-03T10:26:46Z</time>
      </trkpt>
      <trkpt lat="44.66837" lon="5.09997">
        <ele>707.67</ele>
        <time>2020-12-03T10:26:59Z</time>
      </trkpt>
      <trkpt lat="44.66839" lon="5.09983">
        <ele>704.3</ele>
        <time>2020-12-03T10:27:12Z</time>
      </trkpt>
      <trkpt lat="44.66839" lon="5.09973">
        <ele>702.86</ele>
        <time>2020-12-03T10:27:25Z</time>
      </trkpt>
      <trkpt lat="44.66843" lon="5.0996">
        <ele>699.5</ele>
        <time>2020-12-03T10:27:44Z</time>
      </trkpt>
      <trkpt lat="44.66845" lon="5.09929">
        <ele>695.17</ele>
        <time>2020-12-03T10:28:04Z</time>
      </trkpt>
      <trkpt lat="44.6684" lon="5.09917">
        <ele>695.65</ele>
        <time>2020-12-03T10:28:17Z</time>
      </trkpt>
      <trkpt lat="44.66842" lon="5.09903">
        <ele>692.29</ele>
        <time>2020-12-03T10:28:38Z</time>
      </trkpt>
      <trkpt lat="44.66835" lon="5.0987">
        <ele>688.92</ele>
        <time>2020-12-03T10:28:57Z</time>
      </trkpt>
      <trkpt lat="44.66834" lon="5.09864">
        <ele>685.08</ele>
        <time>2020-12-03T10:29:08Z</time>
      </trkpt>
      <trkpt lat="44.66832" lon="5.09855">
        <ele>678.83</ele>
        <time>2020-12-03T10:29:29Z</time>
      </trkpt>
      <trkpt lat="44.66833" lon="5.09849">
        <ele>680.27</ele>
        <time>2020-12-03T10:29:46Z</time>
      </trkpt>
      <trkpt lat="44.66835" lon="5.09832">
        <ele>678.83</ele>
        <time>2020-12-03T10:30:04Z</time>
      </trkpt>
      <trkpt lat="44.66838" lon="5.09804">
        <ele>676.42</ele>
        <time>2020-12-03T10:30:24Z</time>
      </trkpt>
      <trkpt lat="44.66844" lon="5.09778">
        <ele>672.1</ele>
        <time>2020-12-03T10:30:43Z</time>
      </trkpt>
      <trkpt lat="44.66845" lon="5.09748">
        <ele>667.77</ele>
        <time>2020-12-03T10:31:04Z</time>
      </trkpt>
      <trkpt lat="44.66846" lon="5.09728">
        <ele>674.5</ele>
        <time>2020-12-03T10:31:14Z</time>
      </trkpt>
      <trkpt lat="44.66854" lon="5.09709">
        <ele>675.94</ele>
        <time>2020-12-03T10:31:29Z</time>
      </trkpt>
      <trkpt lat="44.66858" lon="5.09698">
        <ele>675.94</ele>
        <time>2020-12-03T10:31:42Z</time>
      </trkpt>
      <trkpt lat="44.66861" lon="5.09687">
        <ele>675.94</ele>
        <time>2020-12-03T10:31:57Z</time>
      </trkpt>
      <trkpt lat="44.66867" lon="5.09671">
        <ele>676.42</ele>
        <time>2020-12-03T10:32:11Z</time>
      </trkpt>
      <trkpt lat="44.66872" lon="5.09648">
        <ele>676.42</ele>
        <time>2020-12-03T10:32:27Z</time>
      </trkpt>
      <trkpt lat="44.66875" lon="5.0963">
        <ele>677.39</ele>
        <time>2020-12-03T10:32:41Z</time>
      </trkpt>
      <trkpt lat="44.66881" lon="5.09625">
        <ele>673.54</ele>
        <time>2020-12-03T10:32:56Z</time>
      </trkpt>
      <trkpt lat="44.66887" lon="5.09638">
        <ele>669.22</ele>
        <time>2020-12-03T10:33:12Z</time>
      </trkpt>
      <trkpt lat="44.66891" lon="5.09644">
        <ele>664.41</ele>
        <time>2020-12-03T10:33:24Z</time>
      </trkpt>
      <trkpt lat="44.669" lon="5.0964">
        <ele>658.64</ele>
        <time>2020-12-03T10:33:55Z</time>
      </trkpt>
      <trkpt lat="44.66896" lon="5.09635">
        <ele>660.56</ele>
        <time>2020-12-03T10:34:22Z</time>
      </trkpt>
      <trkpt lat="44.66896" lon="5.09639">
        <ele>661.04</ele>
        <time>2020-12-03T10:34:56Z</time>
      </trkpt>
      <trkpt lat="44.66901" lon="5.09641">
        <ele>666.33</ele>
        <time>2020-12-03T10:35:16Z</time>
      </trkpt>
      <trkpt lat="44.66892" lon="5.09656">
        <ele>667.77</ele>
        <time>2020-12-03T10:35:41Z</time>
      </trkpt>
      <trkpt lat="44.66898" lon="5.09672">
        <ele>662.97</ele>
        <time>2020-12-03T10:36:01Z</time>
      </trkpt>
      <trkpt lat="44.66901" lon="5.09673">
        <ele>656.24</ele>
        <time>2020-12-03T10:36:17Z</time>
      </trkpt>
      <trkpt lat="44.66904" lon="5.0966">
        <ele>649.99</ele>
        <time>2020-12-03T10:36:32Z</time>
      </trkpt>
      <trkpt lat="44.66906" lon="5.09659">
        <ele>642.78</ele>
        <time>2020-12-03T10:36:50Z</time>
      </trkpt>
      <trkpt lat="44.6692" lon="5.09673">
        <ele>636.53</ele>
        <time>2020-12-03T10:37:13Z</time>
      </trkpt>
      <trkpt lat="44.66926" lon="5.09675">
        <ele>630.76</ele>
        <time>2020-12-03T10:37:35Z</time>
      </trkpt>
      <trkpt lat="44.66938" lon="5.09647">
        <ele>632.68</ele>
        <time>2020-12-03T10:37:59Z</time>
      </trkpt>
      <trkpt lat="44.66934" lon="5.09668">
        <ele>627.4</ele>
        <time>2020-12-03T10:38:19Z</time>
      </trkpt>
      <trkpt lat="44.6694" lon="5.09663">
        <ele>622.59</ele>
        <time>2020-12-03T10:38:34Z</time>
      </trkpt>
      <trkpt lat="44.66941" lon="5.09673">
        <ele>621.15</ele>
        <time>2020-12-03T10:38:47Z</time>
      </trkpt>
      <trkpt lat="44.66944" lon="5.09674">
        <ele>614.9</ele>
        <time>2020-12-03T10:39:01Z</time>
      </trkpt>
      <trkpt lat="44.66951" lon="5.09684">
        <ele>608.17</ele>
        <time>2020-12-03T10:39:23Z</time>
      </trkpt>
      <trkpt lat="44.66959" lon="5.09688">
        <ele>601.44</ele>
        <time>2020-12-03T10:39:43Z</time>
      </trkpt>
      <trkpt lat="44.66973" lon="5.09695">
        <ele>599.04</ele>
        <time>2020-12-03T10:40:04Z</time>
      </trkpt>
      <trkpt lat="44.66971" lon="5.09687">
        <ele>596.64</ele>
        <time>2020-12-03T10:40:19Z</time>
      </trkpt>
      <trkpt lat="44.66976" lon="5.09699">
        <ele>594.23</ele>
        <time>2020-12-03T10:40:42Z</time>
      </trkpt>
      <trkpt lat="44.66976" lon="5.09692">
        <ele>590.39</ele>
        <time>2020-12-03T10:40:56Z</time>
      </trkpt>
      <trkpt lat="44.66992" lon="5.09701">
        <ele>586.54</ele>
        <time>2020-12-03T10:41:20Z</time>
      </trkpt>
      <trkpt lat="44.67002" lon="5.09705">
        <ele>581.25</ele>
        <time>2020-12-03T10:41:42Z</time>
      </trkpt>
      <trkpt lat="44.67008" lon="5.09711">
        <ele>574.04</ele>
        <time>2020-12-03T10:42:02Z</time>
      </trkpt>
      <trkpt lat="44.67018" lon="5.09722">
        <ele>568.28</ele>
        <time>2020-12-03T10:42:23Z</time>
      </trkpt>
      <trkpt lat="44.67031" lon="5.09724">
        <ele>569.24</ele>
        <time>2020-12-03T10:42:35Z</time>
      </trkpt>
      <trkpt lat="44.67036" lon="5.09729">
        <ele>568.28</ele>
        <time>2020-12-03T10:42:53Z</time>
      </trkpt>
      <trkpt lat="44.67043" lon="5.0973">
        <ele>567.32</ele>
        <time>2020-12-03T10:43:12Z</time>
      </trkpt>
      <trkpt lat="44.67053" lon="5.09735">
        <ele>564.43</ele>
        <time>2020-12-03T10:43:33Z</time>
      </trkpt>
      <trkpt lat="44.67064" lon="5.0974">
        <ele>559.14</ele>
        <time>2020-12-03T10:43:48Z</time>
      </trkpt>
      <trkpt lat="44.67074" lon="5.0975">
        <ele>551.45</ele>
        <time>2020-12-03T10:44:12Z</time>
      </trkpt>
      <trkpt lat="44.67082" lon="5.09752">
        <ele>549.53</ele>
        <time>2020-12-03T10:44:29Z</time>
      </trkpt>
      <trkpt lat="44.67087" lon="5.09752">
        <ele>549.05</ele>
        <time>2020-12-03T10:44:41Z</time>
      </trkpt>
      <trkpt lat="44.67092" lon="5.09746">
        <ele>548.57</ele>
        <time>2020-12-03T10:44:57Z</time>
      </trkpt>
      <trkpt lat="44.67092" lon="5.09747">
        <ele>546.17</ele>
        <time>2020-12-03T10:45:19Z</time>
      </trkpt>
      <trkpt lat="44.67099" lon="5.09749">
        <ele>540.88</ele>
        <time>2020-12-03T10:45:34Z</time>
      </trkpt>
      <trkpt lat="44.67107" lon="5.09754">
        <ele>534.63</ele>
        <time>2020-12-03T10:45:53Z</time>
      </trkpt>
      <trkpt lat="44.6712" lon="5.09757">
        <ele>527.9</ele>
        <time>2020-12-03T10:46:15Z</time>
      </trkpt>
      <trkpt lat="44.67124" lon="5.09746">
        <ele>528.38</ele>
        <time>2020-12-03T10:46:30Z</time>
      </trkpt>
      <trkpt lat="44.67131" lon="5.09748">
        <ele>523.58</ele>
        <time>2020-12-03T10:46:46Z</time>
      </trkpt>
      <trkpt lat="44.67141" lon="5.09754">
        <ele>521.65</ele>
        <time>2020-12-03T10:47:00Z</time>
      </trkpt>
      <trkpt lat="44.6715" lon="5.09754">
        <ele>516.37</ele>
        <time>2020-12-03T10:47:13Z</time>
      </trkpt>
      <trkpt lat="44.67154" lon="5.0975">
        <ele>512.04</ele>
        <time>2020-12-03T10:47:25Z</time>
      </trkpt>
      <trkpt lat="44.67166" lon="5.09752">
        <ele>502.43</ele>
        <time>2020-12-03T10:47:48Z</time>
      </trkpt>
      <trkpt lat="44.67182" lon="5.09745">
        <ele>496.66</ele>
        <time>2020-12-03T10:48:11Z</time>
      </trkpt>
      <trkpt lat="44.67193" lon="5.09745">
        <ele>502.91</ele>
        <time>2020-12-03T10:48:27Z</time>
      </trkpt>
      <trkpt lat="44.67203" lon="5.09739">
        <ele>498.1</ele>
        <time>2020-12-03T10:48:42Z</time>
      </trkpt>
      <trkpt lat="44.67208" lon="5.09733">
        <ele>494.74</ele>
        <time>2020-12-03T10:48:54Z</time>
      </trkpt>
      <trkpt lat="44.6721" lon="5.09733">
        <ele>494.26</ele>
        <time>2020-12-03T10:48:56Z</time>
      </trkpt>
      <trkpt lat="44.67214" lon="5.09731">
        <ele>492.33</ele>
        <time>2020-12-03T10:49:01Z</time>
      </trkpt>
      <trkpt lat="44.67217" lon="5.09722">
        <ele>489.93</ele>
        <time>2020-12-03T10:49:09Z</time>
      </trkpt>
      <trkpt lat="44.67208" lon="5.09701">
        <ele>486.56</ele>
        <time>2020-12-03T10:49:23Z</time>
      </trkpt>
      <trkpt lat="44.67203" lon="5.09693">
        <ele>486.56</ele>
        <time>2020-12-03T10:49:29Z</time>
      </trkpt>
      <trkpt lat="44.67196" lon="5.09674">
        <ele>488.01</ele>
        <time>2020-12-03T10:49:42Z</time>
      </trkpt>
      <trkpt lat="44.67187" lon="5.09646">
        <ele>489.93</ele>
        <time>2020-12-03T10:49:58Z</time>
      </trkpt>
      <trkpt lat="44.67182" lon="5.0962">
        <ele>488.01</ele>
        <time>2020-12-03T10:50:12Z</time>
      </trkpt>
      <trkpt lat="44.6718" lon="5.09592">
        <ele>483.68</ele>
        <time>2020-12-03T10:50:26Z</time>
      </trkpt>
      <trkpt lat="44.6718" lon="5.09586">
        <ele>483.68</ele>
        <time>2020-12-03T10:50:29Z</time>
      </trkpt>
      <trkpt lat="44.67183" lon="5.09554">
        <ele>481.28</ele>
        <time>2020-12-03T10:50:46Z</time>
      </trkpt>
      <trkpt lat="44.67184" lon="5.09527">
        <ele>481.76</ele>
        <time>2020-12-03T10:51:00Z</time>
      </trkpt>
      <trkpt lat="44.67185" lon="5.0952">
        <ele>482.24</ele>
        <time>2020-12-03T10:51:04Z</time>
      </trkpt>
      <trkpt lat="44.67186" lon="5.09513">
        <ele>482.72</ele>
        <time>2020-12-03T10:51:08Z</time>
      </trkpt>
      <trkpt lat="44.67187" lon="5.09497">
        <ele>483.2</ele>
        <time>2020-12-03T10:51:22Z</time>
      </trkpt>
      <trkpt lat="44.67194" lon="5.09473">
        <ele>483.68</ele>
        <time>2020-12-03T10:51:36Z</time>
      </trkpt>
      <trkpt lat="44.67196" lon="5.09471">
        <ele>483.2</ele>
        <time>2020-12-03T10:51:39Z</time>
      </trkpt>
      <trkpt lat="44.67201" lon="5.0947">
        <ele>480.8</ele>
        <time>2020-12-03T10:51:45Z</time>
      </trkpt>
      <trkpt lat="44.6722" lon="5.09466">
        <ele>475.03</ele>
        <time>2020-12-03T10:52:01Z</time>
      </trkpt>
      <trkpt lat="44.67239" lon="5.09467">
        <ele>470.22</ele>
        <time>2020-12-03T10:52:18Z</time>
      </trkpt>
      <trkpt lat="44.67234" lon="5.09487">
        <ele>465.9</ele>
        <time>2020-12-03T10:52:34Z</time>
      </trkpt>
      <trkpt lat="44.67233" lon="5.09488">
        <ele>465.9</ele>
        <time>2020-12-03T10:52:35Z</time>
      </trkpt>
      <trkpt lat="44.67226" lon="5.09528">
        <ele>465.42</ele>
        <time>2020-12-03T10:52:55Z</time>
      </trkpt>
      <trkpt lat="44.67222" lon="5.09561">
        <ele>468.3</ele>
        <time>2020-12-03T10:53:11Z</time>
      </trkpt>
      <trkpt lat="44.6722" lon="5.09568">
        <ele>468.3</ele>
        <time>2020-12-03T10:53:19Z</time>
      </trkpt>
      <trkpt lat="44.67229" lon="5.09601">
        <ele>467.34</ele>
        <time>2020-12-03T10:53:40Z</time>
      </trkpt>
      <trkpt lat="44.67232" lon="5.09611">
        <ele>466.86</ele>
        <time>2020-12-03T10:53:45Z</time>
      </trkpt>
      <trkpt lat="44.67241" lon="5.09635">
        <ele>460.61</ele>
        <time>2020-12-03T10:54:02Z</time>
      </trkpt>
      <trkpt lat="44.67267" lon="5.09645">
        <ele>454.36</ele>
        <time>2020-12-03T10:54:21Z</time>
      </trkpt>
      <trkpt lat="44.67292" lon="5.09659">
        <ele>447.63</ele>
        <time>2020-12-03T10:54:41Z</time>
      </trkpt>
      <trkpt lat="44.67296" lon="5.0966">
        <ele>446.67</ele>
        <time>2020-12-03T10:54:44Z</time>
      </trkpt>
      <trkpt lat="44.67322" lon="5.09661">
        <ele>442.34</ele>
        <time>2020-12-03T10:55:03Z</time>
      </trkpt>
      <trkpt lat="44.67348" lon="5.09668">
        <ele>441.38</ele>
        <time>2020-12-03T10:55:24Z</time>
      </trkpt>
      <trkpt lat="44.67371" lon="5.09669">
        <ele>439.46</ele>
        <time>2020-12-03T10:55:43Z</time>
      </trkpt>
      <trkpt lat="44.67391" lon="5.0968">
        <ele>435.61</ele>
        <time>2020-12-03T10:56:04Z</time>
      </trkpt>
      <trkpt lat="44.67406" lon="5.09683">
        <ele>434.65</ele>
        <time>2020-12-03T10:56:19Z</time>
      </trkpt>
      <trkpt lat="44.67426" lon="5.0969">
        <ele>434.17</ele>
        <time>2020-12-03T10:56:36Z</time>
      </trkpt>
      <trkpt lat="44.67451" lon="5.09692">
        <ele>438.5</ele>
        <time>2020-12-03T10:56:51Z</time>
      </trkpt>
      <trkpt lat="44.67477" lon="5.09703">
        <ele>433.69</ele>
        <time>2020-12-03T10:57:12Z</time>
      </trkpt>
      <trkpt lat="44.67496" lon="5.09714">
        <ele>432.73</ele>
        <time>2020-12-03T10:57:28Z</time>
      </trkpt>
      <trkpt lat="44.675" lon="5.09703">
        <ele>432.25</ele>
        <time>2020-12-03T10:57:36Z</time>
      </trkpt>
      <trkpt lat="44.67493" lon="5.09685">
        <ele>430.33</ele>
        <time>2020-12-03T10:57:49Z</time>
      </trkpt>
      <trkpt lat="44.67479" lon="5.09659">
        <ele>428.89</ele>
        <time>2020-12-03T10:58:05Z</time>
      </trkpt>
      <trkpt lat="44.67463" lon="5.09638">
        <ele>428.89</ele>
        <time>2020-12-03T10:58:21Z</time>
      </trkpt>
      <trkpt lat="44.67464" lon="5.09636">
        <ele>428.89</ele>
        <time>2020-12-03T10:58:22Z</time>
      </trkpt>
      <trkpt lat="44.67469" lon="5.09632">
        <ele>424.08</ele>
        <time>2020-12-03T10:58:30Z</time>
      </trkpt>
      <trkpt lat="44.67477" lon="5.09638">
        <ele>421.19</ele>
        <time>2020-12-03T10:58:35Z</time>
      </trkpt>
      <trkpt lat="44.67488" lon="5.09647">
        <ele>417.83</ele>
        <time>2020-12-03T10:58:46Z</time>
      </trkpt>
      <trkpt lat="44.67503" lon="5.09659">
        <ele>416.87</ele>
        <time>2020-12-03T10:58:58Z</time>
      </trkpt>
      <trkpt lat="44.67519" lon="5.09669">
        <ele>415.43</ele>
        <time>2020-12-03T10:59:11Z</time>
      </trkpt>
      <trkpt lat="44.67536" lon="5.09678">
        <ele>413.5</ele>
        <time>2020-12-03T10:59:24Z</time>
      </trkpt>
      <trkpt lat="44.67555" lon="5.09685">
        <ele>412.54</ele>
        <time>2020-12-03T10:59:37Z</time>
      </trkpt>
      <trkpt lat="44.67572" lon="5.09692">
        <ele>411.58</ele>
        <time>2020-12-03T10:59:49Z</time>
      </trkpt>
      <trkpt lat="44.67588" lon="5.09698">
        <ele>409.18</ele>
        <time>2020-12-03T11:00:00Z</time>
      </trkpt>
      <trkpt lat="44.67604" lon="5.09699">
        <ele>407.26</ele>
        <time>2020-12-03T11:00:12Z</time>
      </trkpt>
      <trkpt lat="44.67618" lon="5.09701">
        <ele>406.29</ele>
        <time>2020-12-03T11:00:23Z</time>
      </trkpt>
      <trkpt lat="44.67633" lon="5.09709">
        <ele>403.89</ele>
        <time>2020-12-03T11:00:34Z</time>
      </trkpt>
      <trkpt lat="44.67646" lon="5.09712">
        <ele>403.89</ele>
        <time>2020-12-03T11:00:44Z</time>
      </trkpt>
      <trkpt lat="44.67663" lon="5.09716">
        <ele>404.37</ele>
        <time>2020-12-03T11:00:57Z</time>
      </trkpt>
      <trkpt lat="44.67683" lon="5.09717">
        <ele>404.37</ele>
        <time>2020-12-03T11:01:10Z</time>
      </trkpt>
      <trkpt lat="44.67699" lon="5.09716">
        <ele>405.33</ele>
        <time>2020-12-03T11:01:22Z</time>
      </trkpt>
      <trkpt lat="44.67714" lon="5.09716">
        <ele>404.85</ele>
        <time>2020-12-03T11:01:34Z</time>
      </trkpt>
      <trkpt lat="44.67726" lon="5.09718">
        <ele>405.81</ele>
        <time>2020-12-03T11:01:41Z</time>
      </trkpt>
      <trkpt lat="44.67742" lon="5.09721">
        <ele>406.29</ele>
        <time>2020-12-03T11:01:54Z</time>
      </trkpt>
      <trkpt lat="44.67754" lon="5.09724">
        <ele>407.26</ele>
        <time>2020-12-03T11:02:06Z</time>
      </trkpt>
      <trkpt lat="44.67763" lon="5.09727">
        <ele>409.18</ele>
        <time>2020-12-03T11:02:16Z</time>
      </trkpt>
      <trkpt lat="44.67775" lon="5.09732">
        <ele>412.06</ele>
        <time>2020-12-03T11:02:28Z</time>
      </trkpt>
      <trkpt lat="44.67775" lon="5.09732">
        <ele>412.06</ele>
        <time>2020-12-03T11:02:29Z</time>
      </trkpt>
      <trkpt lat="44.67787" lon="5.09727">
        <ele>413.98</ele>
        <time>2020-12-03T11:02:39Z</time>
      </trkpt>
      <trkpt lat="44.67792" lon="5.0972">
        <ele>414.47</ele>
        <time>2020-12-03T11:02:46Z</time>
      </trkpt>
      <trkpt lat="44.67797" lon="5.09718">
        <ele>414.47</ele>
        <time>2020-12-03T11:02:53Z</time>
      </trkpt>
      <trkpt lat="44.67802" lon="5.09719">
        <ele>414.95</ele>
        <time>2020-12-03T11:02:59Z</time>
      </trkpt>
      <trkpt lat="44.67805" lon="5.0972">
        <ele>415.43</ele>
        <time>2020-12-03T11:03:02Z</time>
      </trkpt>
      <trkpt lat="44.67808" lon="5.09724">
        <ele>415.91</ele>
        <time>2020-12-03T11:03:08Z</time>
      </trkpt>
      <trkpt lat="44.67817" lon="5.09722">
        <ele>416.87</ele>
        <time>2020-12-03T11:03:16Z</time>
      </trkpt>
      <trkpt lat="44.6782" lon="5.09722">
        <ele>416.39</ele>
        <time>2020-12-03T11:03:20Z</time>
      </trkpt>
      <trkpt lat="44.6783" lon="5.09727">
        <ele>413.5</ele>
        <time>2020-12-03T11:03:29Z</time>
      </trkpt>
      <trkpt lat="44.67834" lon="5.09737">
        <ele>411.1</ele>
        <time>2020-12-03T11:03:37Z</time>
      </trkpt>
      <trkpt lat="44.6784" lon="5.09748">
        <ele>411.1</ele>
        <time>2020-12-03T11:03:47Z</time>
      </trkpt>
      <trkpt lat="44.67841" lon="5.09749">
        <ele>411.1</ele>
        <time>2020-12-03T11:03:48Z</time>
      </trkpt>
      <trkpt lat="44.67844" lon="5.09763">
        <ele>413.98</ele>
        <time>2020-12-03T11:03:59Z</time>
      </trkpt>
      <trkpt lat="44.67844" lon="5.09766">
        <ele>413.98</ele>
        <time>2020-12-03T11:04:02Z</time>
      </trkpt>
      <trkpt lat="44.67845" lon="5.09772">
        <ele>413.5</ele>
        <time>2020-12-03T11:04:06Z</time>
      </trkpt>
      <trkpt lat="44.67845" lon="5.09777">
        <ele>412.54</ele>
        <time>2020-12-03T11:04:10Z</time>
      </trkpt>
      <trkpt lat="44.67841" lon="5.09783">
        <ele>413.5</ele>
        <time>2020-12-03T11:04:18Z</time>
      </trkpt>
      <trkpt lat="44.67839" lon="5.09787">
        <ele>413.5</ele>
        <time>2020-12-03T11:04:22Z</time>
      </trkpt>
      <trkpt lat="44.67838" lon="5.09791">
        <ele>413.5</ele>
        <time>2020-12-03T11:04:26Z</time>
      </trkpt>
      <trkpt lat="44.67835" lon="5.09792">
        <ele>413.02</ele>
        <time>2020-12-03T11:04:38Z</time>
      </trkpt>
      <trkpt lat="44.67838" lon="5.09795">
        <ele>413.02</ele>
        <time>2020-12-03T11:04:56Z</time>
      </trkpt>
      <trkpt lat="44.67835" lon="5.09799">
        <ele>411.1</ele>
        <time>2020-12-03T11:05:15Z</time>
      </trkpt>
      <trkpt lat="44.67832" lon="5.09799">
        <ele>408.7</ele>
        <time>2020-12-03T11:05:43Z</time>
      </trkpt>
      <trkpt lat="44.67836" lon="5.09796">
        <ele>411.58</ele>
        <time>2020-12-03T11:05:50Z</time>
      </trkpt>
      <trkpt lat="44.67828" lon="5.09799">
        <ele>409.66</ele>
        <time>2020-12-03T11:06:05Z</time>
      </trkpt>
      <trkpt lat="44.67827" lon="5.09798">
        <ele>410.62</ele>
        <time>2020-12-03T11:06:22Z</time>
      </trkpt>
      <trkpt lat="44.67827" lon="5.098">
        <ele>411.58</ele>
        <time>2020-12-03T11:06:30Z</time>
      </trkpt>
      <trkpt lat="44.67829" lon="5.09797">
        <ele>412.54</ele>
        <time>2020-12-03T11:06:37Z</time>
      </trkpt>
      <trkpt lat="44.67826" lon="5.0979">
        <ele>413.5</ele>
        <time>2020-12-03T11:06:45Z</time>
      </trkpt>
      <trkpt lat="44.6782" lon="5.09777">
        <ele>416.39</ele>
        <time>2020-12-03T11:06:58Z</time>
      </trkpt>
      <trkpt lat="44.67815" lon="5.09766">
        <ele>419.75</ele>
        <time>2020-12-03T11:07:11Z</time>
      </trkpt>
      <trkpt lat="44.67815" lon="5.09761">
        <ele>420.71</ele>
        <time>2020-12-03T11:07:15Z</time>
      </trkpt>
      <trkpt lat="44.67812" lon="5.09742">
        <ele>423.6</ele>
        <time>2020-12-03T11:07:27Z</time>
      </trkpt>
      <trkpt lat="44.67812" lon="5.09732">
        <ele>422.16</ele>
        <time>2020-12-03T11:07:35Z</time>
      </trkpt>
      <trkpt lat="44.67805" lon="5.09721">
        <ele>415.91</ele>
        <time>2020-12-03T11:07:46Z</time>
      </trkpt>
      <trkpt lat="44.67792" lon="5.09721">
        <ele>411.58</ele>
        <time>2020-12-03T11:07:58Z</time>
      </trkpt>
      <trkpt lat="44.67784" lon="5.09731">
        <ele>410.14</ele>
        <time>2020-12-03T11:08:07Z</time>
      </trkpt>
      <trkpt lat="44.67779" lon="5.09734">
        <ele>409.18</ele>
        <time>2020-12-03T11:08:12Z</time>
      </trkpt>
      <trkpt lat="44.6777" lon="5.0973">
        <ele>407.26</ele>
        <time>2020-12-03T11:08:20Z</time>
      </trkpt>
      <trkpt lat="44.67768" lon="5.09729">
        <ele>407.26</ele>
        <time>2020-12-03T11:08:22Z</time>
      </trkpt>
      <trkpt lat="44.67761" lon="5.09724">
        <ele>406.29</ele>
        <time>2020-12-03T11:08:28Z</time>
      </trkpt>
      <trkpt lat="44.6775" lon="5.09723">
        <ele>404.37</ele>
        <time>2020-12-03T11:08:45Z</time>
      </trkpt>
      <trkpt lat="44.67737" lon="5.09723">
        <ele>402.93</ele>
        <time>2020-12-03T11:08:59Z</time>
      </trkpt>
      <trkpt lat="44.67712" lon="5.09719">
        <ele>402.45</ele>
        <time>2020-12-03T11:09:19Z</time>
      </trkpt>
      <trkpt lat="44.67701" lon="5.09719">
        <ele>402.45</ele>
        <time>2020-12-03T11:09:30Z</time>
      </trkpt>
      <trkpt lat="44.67687" lon="5.09719">
        <ele>400.53</ele>
        <time>2020-12-03T11:09:41Z</time>
      </trkpt>
      <trkpt lat="44.67663" lon="5.09718">
        <ele>401.49</ele>
        <time>2020-12-03T11:10:00Z</time>
      </trkpt>
      <trkpt lat="44.67654" lon="5.09717">
        <ele>401.01</ele>
        <time>2020-12-03T11:10:08Z</time>
      </trkpt>
      <trkpt lat="44.67641" lon="5.09713">
        <ele>401.97</ele>
        <time>2020-12-03T11:10:18Z</time>
      </trkpt>
      <trkpt lat="44.67633" lon="5.09708">
        <ele>400.05</ele>
        <time>2020-12-03T11:10:33Z</time>
      </trkpt>
      <trkpt lat="44.67632" lon="5.09706">
        <ele>399.57</ele>
        <time>2020-12-03T11:10:50Z</time>
      </trkpt>
      <trkpt lat="44.67633" lon="5.09708">
        <ele>402.45</ele>
        <time>2020-12-03T11:11:03Z</time>
      </trkpt>
      <trkpt lat="44.67632" lon="5.09708">
        <ele>402.45</ele>
        <time>2020-12-03T11:11:07Z</time>
      </trkpt>
      <trkpt lat="44.67629" lon="5.09719">
        <ele>401.97</ele>
        <time>2020-12-03T11:11:22Z</time>
      </trkpt>
      <trkpt lat="44.67634" lon="5.09721">
        <ele>401.49</ele>
        <time>2020-12-03T11:11:27Z</time>
      </trkpt>
      <trkpt lat="44.67649" lon="5.0973">
        <ele>399.57</ele>
        <time>2020-12-03T11:11:41Z</time>
      </trkpt>
      <trkpt lat="44.6766" lon="5.09745">
        <ele>396.68</ele>
        <time>2020-12-03T11:11:53Z</time>
      </trkpt>
      <trkpt lat="44.67664" lon="5.0975">
        <ele>395.24</ele>
        <time>2020-12-03T11:11:59Z</time>
      </trkpt>
      <trkpt lat="44.67672" lon="5.09762">
        <ele>392.84</ele>
        <time>2020-12-03T11:12:09Z</time>
      </trkpt>
      <trkpt lat="44.67685" lon="5.09777">
        <ele>389.47</ele>
        <time>2020-12-03T11:12:23Z</time>
      </trkpt>
      <trkpt lat="44.67699" lon="5.09793">
        <ele>387.07</ele>
        <time>2020-12-03T11:12:38Z</time>
      </trkpt>
      <trkpt lat="44.67711" lon="5.09809">
        <ele>384.18</ele>
        <time>2020-12-03T11:12:51Z</time>
      </trkpt>
      <trkpt lat="44.67721" lon="5.09821">
        <ele>382.26</ele>
        <time>2020-12-03T11:13:03Z</time>
      </trkpt>
      <trkpt lat="44.6773" lon="5.09833">
        <ele>378.9</ele>
        <time>2020-12-03T11:13:15Z</time>
      </trkpt>
      <trkpt lat="44.67744" lon="5.09845">
        <ele>377.45</ele>
        <time>2020-12-03T11:13:26Z</time>
      </trkpt>
      <trkpt lat="44.67761" lon="5.09858">
        <ele>372.65</ele>
        <time>2020-12-03T11:13:39Z</time>
      </trkpt>
      <trkpt lat="44.67783" lon="5.09859">
        <ele>366.88</ele>
        <time>2020-12-03T11:13:57Z</time>
      </trkpt>
      <trkpt lat="44.67801" lon="5.09865">
        <ele>364</ele>
        <time>2020-12-03T11:14:12Z</time>
      </trkpt>
      <trkpt lat="44.67815" lon="5.09872">
        <ele>363.04</ele>
        <time>2020-12-03T11:14:23Z</time>
      </trkpt>
      <trkpt lat="44.67823" lon="5.09873">
        <ele>363.52</ele>
        <time>2020-12-03T11:14:27Z</time>
      </trkpt>
      <trkpt lat="44.67841" lon="5.09872">
        <ele>365.92</ele>
        <time>2020-12-03T11:14:40Z</time>
      </trkpt>
      <trkpt lat="44.67852" lon="5.09878">
        <ele>366.88</ele>
        <time>2020-12-03T11:14:50Z</time>
      </trkpt>
      <trkpt lat="44.67873" lon="5.09879">
        <ele>369.28</ele>
        <time>2020-12-03T11:15:06Z</time>
      </trkpt>
      <trkpt lat="44.6789" lon="5.09876">
        <ele>369.76</ele>
        <time>2020-12-03T11:15:19Z</time>
      </trkpt>
      <trkpt lat="44.679" lon="5.09866">
        <ele>369.28</ele>
        <time>2020-12-03T11:15:25Z</time>
      </trkpt>
      <trkpt lat="44.67916" lon="5.09842">
        <ele>369.28</ele>
        <time>2020-12-03T11:15:38Z</time>
      </trkpt>
      <trkpt lat="44.67926" lon="5.09821">
        <ele>368.8</ele>
        <time>2020-12-03T11:15:49Z</time>
      </trkpt>
      <trkpt lat="44.67928" lon="5.09816">
        <ele>368.32</ele>
        <time>2020-12-03T11:15:53Z</time>
      </trkpt>
      <trkpt lat="44.6793" lon="5.09805">
        <ele>367.84</ele>
        <time>2020-12-03T11:15:58Z</time>
      </trkpt>
      <trkpt lat="44.67935" lon="5.09778">
        <ele>366.4</ele>
        <time>2020-12-03T11:16:12Z</time>
      </trkpt>
      <trkpt lat="44.67935" lon="5.09757">
        <ele>364.48</ele>
        <time>2020-12-03T11:16:24Z</time>
      </trkpt>
      <trkpt lat="44.67936" lon="5.09734">
        <ele>363.52</ele>
        <time>2020-12-03T11:16:36Z</time>
      </trkpt>
      <trkpt lat="44.67932" lon="5.09705">
        <ele>361.11</ele>
        <time>2020-12-03T11:16:50Z</time>
      </trkpt>
      <trkpt lat="44.67931" lon="5.09686">
        <ele>359.19</ele>
        <time>2020-12-03T11:16:59Z</time>
      </trkpt>
      <trkpt lat="44.6794" lon="5.09682">
        <ele>356.79</ele>
        <time>2020-12-03T11:17:06Z</time>
      </trkpt>
      <trkpt lat="44.67942" lon="5.09687">
        <ele>355.34</ele>
        <time>2020-12-03T11:17:11Z</time>
      </trkpt>
      <trkpt lat="44.67947" lon="5.09709">
        <ele>353.42</ele>
        <time>2020-12-03T11:17:23Z</time>
      </trkpt>
      <trkpt lat="44.67951" lon="5.09729">
        <ele>352.46</ele>
        <time>2020-12-03T11:17:34Z</time>
      </trkpt>
      <trkpt lat="44.67957" lon="5.09745">
        <ele>351.02</ele>
        <time>2020-12-03T11:17:45Z</time>
      </trkpt>
      <trkpt lat="44.67963" lon="5.09769">
        <ele>347.65</ele>
        <time>2020-12-03T11:17:57Z</time>
      </trkpt>
      <trkpt lat="44.67965" lon="5.09778">
        <ele>345.73</ele>
        <time>2020-12-03T11:18:03Z</time>
      </trkpt>
      <trkpt lat="44.67969" lon="5.09801">
        <ele>343.81</ele>
        <time>2020-12-03T11:18:15Z</time>
      </trkpt>
      <trkpt lat="44.67966" lon="5.09821">
        <ele>340.92</ele>
        <time>2020-12-03T11:18:27Z</time>
      </trkpt>
      <trkpt lat="44.67965" lon="5.09839">
        <ele>339</ele>
        <time>2020-12-03T11:18:39Z</time>
      </trkpt>
      <trkpt lat="44.67966" lon="5.09863">
        <ele>335.64</ele>
        <time>2020-12-03T11:18:50Z</time>
      </trkpt>
      <trkpt lat="44.67969" lon="5.09876">
        <ele>333.71</ele>
        <time>2020-12-03T11:18:58Z</time>
      </trkpt>
      <trkpt lat="44.67982" lon="5.09894">
        <ele>332.27</ele>
        <time>2020-12-03T11:19:11Z</time>
      </trkpt>
      <trkpt lat="44.67993" lon="5.09907">
        <ele>330.35</ele>
        <time>2020-12-03T11:19:22Z</time>
      </trkpt>
      <trkpt lat="44.68005" lon="5.09916">
        <ele>329.39</ele>
        <time>2020-12-03T11:19:33Z</time>
      </trkpt>
      <trkpt lat="44.68011" lon="5.09916">
        <ele>328.91</ele>
        <time>2020-12-03T11:19:37Z</time>
      </trkpt>
      <trkpt lat="44.68028" lon="5.09924">
        <ele>327.95</ele>
        <time>2020-12-03T11:19:49Z</time>
      </trkpt>
      <trkpt lat="44.68041" lon="5.0993">
        <ele>326.5</ele>
        <time>2020-12-03T11:20:00Z</time>
      </trkpt>
      <trkpt lat="44.68052" lon="5.09933">
        <ele>325.06</ele>
        <time>2020-12-03T11:20:09Z</time>
      </trkpt>
      <trkpt lat="44.6806" lon="5.09938">
        <ele>324.58</ele>
        <time>2020-12-03T11:20:14Z</time>
      </trkpt>
      <trkpt lat="44.68062" lon="5.09938">
        <ele>325.06</ele>
        <time>2020-12-03T11:20:16Z</time>
      </trkpt>
      <trkpt lat="44.68077" lon="5.09943">
        <ele>324.58</ele>
        <time>2020-12-03T11:20:27Z</time>
      </trkpt>
      <trkpt lat="44.68085" lon="5.09946">
        <ele>322.66</ele>
        <time>2020-12-03T11:20:35Z</time>
      </trkpt>
      <trkpt lat="44.68099" lon="5.09951">
        <ele>322.18</ele>
        <time>2020-12-03T11:20:46Z</time>
      </trkpt>
      <trkpt lat="44.68113" lon="5.09957">
        <ele>321.22</ele>
        <time>2020-12-03T11:20:56Z</time>
      </trkpt>
      <trkpt lat="44.68127" lon="5.09962">
        <ele>320.74</ele>
        <time>2020-12-03T11:21:07Z</time>
      </trkpt>
      <trkpt lat="44.68138" lon="5.09971">
        <ele>320.74</ele>
        <time>2020-12-03T11:21:18Z</time>
      </trkpt>
      <trkpt lat="44.68143" lon="5.09977">
        <ele>320.74</ele>
        <time>2020-12-03T11:21:22Z</time>
      </trkpt>
      <trkpt lat="44.68163" lon="5.09983">
        <ele>324.1</ele>
        <time>2020-12-03T11:21:35Z</time>
      </trkpt>
      <trkpt lat="44.68176" lon="5.09988">
        <ele>324.58</ele>
        <time>2020-12-03T11:21:45Z</time>
      </trkpt>
      <trkpt lat="44.68181" lon="5.0999">
        <ele>323.62</ele>
        <time>2020-12-03T11:21:49Z</time>
      </trkpt>
      <trkpt lat="44.682" lon="5.10007">
        <ele>320.74</ele>
        <time>2020-12-03T11:22:05Z</time>
      </trkpt>
      <trkpt lat="44.68216" lon="5.10013">
        <ele>319.78</ele>
        <time>2020-12-03T11:22:17Z</time>
      </trkpt>
      <trkpt lat="44.68224" lon="5.10015">
        <ele>321.22</ele>
        <time>2020-12-03T11:22:22Z</time>
      </trkpt>
      <trkpt lat="44.68239" lon="5.10027">
        <ele>316.41</ele>
        <time>2020-12-03T11:22:35Z</time>
      </trkpt>
      <trkpt lat="44.68253" lon="5.10039">
        <ele>309.68</ele>
        <time>2020-12-03T11:22:48Z</time>
      </trkpt>
      <trkpt lat="44.68266" lon="5.1005">
        <ele>307.28</ele>
        <time>2020-12-03T11:23:00Z</time>
      </trkpt>
      <trkpt lat="44.68282" lon="5.10056">
        <ele>306.8</ele>
        <time>2020-12-03T11:23:12Z</time>
      </trkpt>
      <trkpt lat="44.68283" lon="5.10056">
        <ele>306.8</ele>
        <time>2020-12-03T11:23:13Z</time>
      </trkpt>
      <trkpt lat="44.68295" lon="5.10063">
        <ele>304.88</ele>
        <time>2020-12-03T11:23:23Z</time>
      </trkpt>
      <trkpt lat="44.68306" lon="5.10071">
        <ele>303.91</ele>
        <time>2020-12-03T11:23:33Z</time>
      </trkpt>
      <trkpt lat="44.68321" lon="5.10077">
        <ele>303.43</ele>
        <time>2020-12-03T11:23:45Z</time>
      </trkpt>
      <trkpt lat="44.6834" lon="5.10088">
        <ele>299.59</ele>
        <time>2020-12-03T11:23:58Z</time>
      </trkpt>
      <trkpt lat="44.68354" lon="5.10094">
        <ele>297.67</ele>
        <time>2020-12-03T11:24:10Z</time>
      </trkpt>
      <trkpt lat="44.68368" lon="5.10097">
        <ele>297.18</ele>
        <time>2020-12-03T11:24:21Z</time>
      </trkpt>
      <trkpt lat="44.6837" lon="5.10098">
        <ele>297.18</ele>
        <time>2020-12-03T11:24:23Z</time>
      </trkpt>
      <trkpt lat="44.68381" lon="5.101">
        <ele>298.15</ele>
        <time>2020-12-03T11:24:33Z</time>
      </trkpt>
      <trkpt lat="44.68394" lon="5.10106">
        <ele>299.11</ele>
        <time>2020-12-03T11:24:43Z</time>
      </trkpt>
      <trkpt lat="44.68412" lon="5.10112">
        <ele>300.07</ele>
        <time>2020-12-03T11:24:55Z</time>
      </trkpt>
      <trkpt lat="44.68428" lon="5.10119">
        <ele>299.59</ele>
        <time>2020-12-03T11:25:06Z</time>
      </trkpt>
      <trkpt lat="44.68442" lon="5.10123">
        <ele>299.11</ele>
        <time>2020-12-03T11:25:16Z</time>
      </trkpt>
      <trkpt lat="44.68451" lon="5.10125">
        <ele>298.63</ele>
        <time>2020-12-03T11:25:23Z</time>
      </trkpt>
      <trkpt lat="44.68454" lon="5.10126">
        <ele>298.15</ele>
        <time>2020-12-03T11:25:25Z</time>
      </trkpt>
      <trkpt lat="44.68471" lon="5.10133">
        <ele>295.74</ele>
        <time>2020-12-03T11:25:37Z</time>
      </trkpt>
      <trkpt lat="44.6848" lon="5.10134">
        <ele>295.74</ele>
        <time>2020-12-03T11:25:44Z</time>
      </trkpt>
      <trkpt lat="44.68488" lon="5.10132">
        <ele>295.74</ele>
        <time>2020-12-03T11:25:49Z</time>
      </trkpt>
      <trkpt lat="44.68509" lon="5.10121">
        <ele>295.74</ele>
        <time>2020-12-03T11:26:05Z</time>
      </trkpt>
      <trkpt lat="44.68536" lon="5.1011">
        <ele>293.34</ele>
        <time>2020-12-03T11:26:22Z</time>
      </trkpt>
      <trkpt lat="44.68557" lon="5.10097">
        <ele>291.42</ele>
        <time>2020-12-03T11:26:36Z</time>
      </trkpt>
      <trkpt lat="44.68574" lon="5.10084">
        <ele>289.01</ele>
        <time>2020-12-03T11:26:50Z</time>
      </trkpt>
      <trkpt lat="44.68576" lon="5.10083">
        <ele>288.53</ele>
        <time>2020-12-03T11:26:52Z</time>
      </trkpt>
      <trkpt lat="44.68595" lon="5.10072">
        <ele>287.09</ele>
        <time>2020-12-03T11:27:05Z</time>
      </trkpt>
      <trkpt lat="44.68611" lon="5.10065">
        <ele>282.28</ele>
        <time>2020-12-03T11:27:17Z</time>
      </trkpt>
      <trkpt lat="44.68626" lon="5.10058">
        <ele>280.84</ele>
        <time>2020-12-03T11:27:30Z</time>
      </trkpt>
      <trkpt lat="44.68642" lon="5.1005">
        <ele>279.88</ele>
        <time>2020-12-03T11:27:43Z</time>
      </trkpt>
      <trkpt lat="44.68658" lon="5.10042">
        <ele>278.44</ele>
        <time>2020-12-03T11:27:55Z</time>
      </trkpt>
      <trkpt lat="44.68663" lon="5.1004">
        <ele>277.48</ele>
        <time>2020-12-03T11:27:59Z</time>
      </trkpt>
      <trkpt lat="44.68682" lon="5.10032">
        <ele>277</ele>
        <time>2020-12-03T11:28:12Z</time>
      </trkpt>
      <trkpt lat="44.68699" lon="5.10026">
        <ele>277.48</ele>
        <time>2020-12-03T11:28:24Z</time>
      </trkpt>
      <trkpt lat="44.68706" lon="5.10021">
        <ele>278.44</ele>
        <time>2020-12-03T11:28:31Z</time>
      </trkpt>
      <trkpt lat="44.6872" lon="5.1002">
        <ele>279.4</ele>
        <time>2020-12-03T11:28:40Z</time>
      </trkpt>
      <trkpt lat="44.68723" lon="5.10018">
        <ele>278.92</ele>
        <time>2020-12-03T11:28:43Z</time>
      </trkpt>
      <trkpt lat="44.68745" lon="5.10013">
        <ele>276.04</ele>
        <time>2020-12-03T11:28:59Z</time>
      </trkpt>
      <trkpt lat="44.68767" lon="5.10008">
        <ele>271.71</ele>
        <time>2020-12-03T11:29:14Z</time>
      </trkpt>
      <trkpt lat="44.68787" lon="5.10004">
        <ele>268.83</ele>
        <time>2020-12-03T11:29:29Z</time>
      </trkpt>
      <trkpt lat="44.68804" lon="5.09998">
        <ele>268.83</ele>
        <time>2020-12-03T11:29:42Z</time>
      </trkpt>
      <trkpt lat="44.68824" lon="5.09993">
        <ele>268.83</ele>
        <time>2020-12-03T11:29:56Z</time>
      </trkpt>
      <trkpt lat="44.68825" lon="5.09992">
        <ele>268.83</ele>
        <time>2020-12-03T11:29:57Z</time>
      </trkpt>
      <trkpt lat="44.68842" lon="5.09988">
        <ele>269.31</ele>
        <time>2020-12-03T11:30:08Z</time>
      </trkpt>
      <trkpt lat="44.68849" lon="5.09987">
        <ele>269.31</ele>
        <time>2020-12-03T11:30:12Z</time>
      </trkpt>
      <trkpt lat="44.68861" lon="5.09983">
        <ele>270.27</ele>
        <time>2020-12-03T11:30:21Z</time>
      </trkpt>
      <trkpt lat="44.68877" lon="5.09978">
        <ele>272.19</ele>
        <time>2020-12-03T11:30:33Z</time>
      </trkpt>
      <trkpt lat="44.68903" lon="5.09977">
        <ele>272.19</ele>
        <time>2020-12-03T11:30:50Z</time>
      </trkpt>
      <trkpt lat="44.68918" lon="5.09974">
        <ele>272.67</ele>
        <time>2020-12-03T11:31:01Z</time>
      </trkpt>
      <trkpt lat="44.68941" lon="5.09969">
        <ele>268.83</ele>
        <time>2020-12-03T11:31:17Z</time>
      </trkpt>
      <trkpt lat="44.68959" lon="5.09965">
        <ele>266.9</ele>
        <time>2020-12-03T11:31:29Z</time>
      </trkpt>
      <trkpt lat="44.68979" lon="5.09962">
        <ele>264.5</ele>
        <time>2020-12-03T11:31:43Z</time>
      </trkpt>
      <trkpt lat="44.68995" lon="5.09958">
        <ele>261.62</ele>
        <time>2020-12-03T11:31:55Z</time>
      </trkpt>
      <trkpt lat="44.69011" lon="5.09955">
        <ele>261.62</ele>
        <time>2020-12-03T11:32:07Z</time>
      </trkpt>
      <trkpt lat="44.69028" lon="5.09959">
        <ele>261.14</ele>
        <time>2020-12-03T11:32:19Z</time>
      </trkpt>
      <trkpt lat="44.69044" lon="5.09957">
        <ele>260.17</ele>
        <time>2020-12-03T11:32:28Z</time>
      </trkpt>
      <trkpt lat="44.69049" lon="5.09956">
        <ele>259.21</ele>
        <time>2020-12-03T11:32:32Z</time>
      </trkpt>
      <trkpt lat="44.69069" lon="5.09957">
        <ele>257.77</ele>
        <time>2020-12-03T11:32:46Z</time>
      </trkpt>
      <trkpt lat="44.6909" lon="5.09953">
        <ele>256.81</ele>
        <time>2020-12-03T11:33:00Z</time>
      </trkpt>
      <trkpt lat="44.69096" lon="5.09951">
        <ele>257.77</ele>
        <time>2020-12-03T11:33:08Z</time>
      </trkpt>
      <trkpt lat="44.69115" lon="5.0995">
        <ele>259.69</ele>
        <time>2020-12-03T11:33:21Z</time>
      </trkpt>
      <trkpt lat="44.69116" lon="5.0995">
        <ele>259.69</ele>
        <time>2020-12-03T11:33:22Z</time>
      </trkpt>
      <trkpt lat="44.69134" lon="5.09945">
        <ele>261.62</ele>
        <time>2020-12-03T11:33:36Z</time>
      </trkpt>
      <trkpt lat="44.69135" lon="5.09945">
        <ele>262.1</ele>
        <time>2020-12-03T11:33:41Z</time>
      </trkpt>
      <trkpt lat="44.6914" lon="5.09946">
        <ele>261.14</ele>
        <time>2020-12-03T11:33:45Z</time>
      </trkpt>
      <trkpt lat="44.69158" lon="5.09941">
        <ele>260.17</ele>
        <time>2020-12-03T11:33:58Z</time>
      </trkpt>
      <trkpt lat="44.69175" lon="5.09934">
        <ele>257.77</ele>
        <time>2020-12-03T11:34:11Z</time>
      </trkpt>
      <trkpt lat="44.69194" lon="5.09927">
        <ele>256.33</ele>
        <time>2020-12-03T11:34:24Z</time>
      </trkpt>
      <trkpt lat="44.69205" lon="5.0992">
        <ele>253.44</ele>
        <time>2020-12-03T11:34:33Z</time>
      </trkpt>
      <trkpt lat="44.69213" lon="5.09918">
        <ele>252</ele>
        <time>2020-12-03T11:34:38Z</time>
      </trkpt>
      <trkpt lat="44.69221" lon="5.09915">
        <ele>251.04</ele>
        <time>2020-12-03T11:34:45Z</time>
      </trkpt>
      <trkpt lat="44.69228" lon="5.09916">
        <ele>251.04</ele>
        <time>2020-12-03T11:34:49Z</time>
      </trkpt>
      <trkpt lat="44.69238" lon="5.09915">
        <ele>252</ele>
        <time>2020-12-03T11:34:54Z</time>
      </trkpt>
      <trkpt lat="44.69245" lon="5.09913">
        <ele>251.04</ele>
        <time>2020-12-03T11:35:01Z</time>
      </trkpt>
      <trkpt lat="44.69265" lon="5.09911">
        <ele>250.08</ele>
        <time>2020-12-03T11:35:15Z</time>
      </trkpt>
      <trkpt lat="44.69279" lon="5.09908">
        <ele>251.04</ele>
        <time>2020-12-03T11:35:23Z</time>
      </trkpt>
      <trkpt lat="44.69299" lon="5.09897">
        <ele>252</ele>
        <time>2020-12-03T11:35:38Z</time>
      </trkpt>
      <trkpt lat="44.69319" lon="5.09889">
        <ele>253.93</ele>
        <time>2020-12-03T11:35:52Z</time>
      </trkpt>
      <trkpt lat="44.69335" lon="5.09877">
        <ele>255.85</ele>
        <time>2020-12-03T11:36:04Z</time>
      </trkpt>
      <trkpt lat="44.69343" lon="5.0987">
        <ele>256.33</ele>
        <time>2020-12-03T11:36:12Z</time>
      </trkpt>
      <trkpt lat="44.69365" lon="5.09856">
        <ele>252.96</ele>
        <time>2020-12-03T11:36:27Z</time>
      </trkpt>
      <trkpt lat="44.69384" lon="5.09849">
        <ele>248.64</ele>
        <time>2020-12-03T11:36:40Z</time>
      </trkpt>
      <trkpt lat="44.69398" lon="5.0985">
        <ele>246.72</ele>
        <time>2020-12-03T11:36:49Z</time>
      </trkpt>
      <trkpt lat="44.69419" lon="5.09853">
        <ele>242.87</ele>
        <time>2020-12-03T11:37:04Z</time>
      </trkpt>
      <trkpt lat="44.6942" lon="5.09853">
        <ele>242.87</ele>
        <time>2020-12-03T11:37:05Z</time>
      </trkpt>
      <trkpt lat="44.6944" lon="5.09857">
        <ele>239.51</ele>
        <time>2020-12-03T11:37:19Z</time>
      </trkpt>
      <trkpt lat="44.69448" lon="5.09854">
        <ele>239.51</ele>
        <time>2020-12-03T11:37:26Z</time>
      </trkpt>
      <trkpt lat="44.69456" lon="5.09853">
        <ele>238.54</ele>
        <time>2020-12-03T11:37:30Z</time>
      </trkpt>
      <trkpt lat="44.69476" lon="5.09848">
        <ele>238.06</ele>
        <time>2020-12-03T11:37:44Z</time>
      </trkpt>
      <trkpt lat="44.69498" lon="5.09838">
        <ele>236.62</ele>
        <time>2020-12-03T11:37:59Z</time>
      </trkpt>
      <trkpt lat="44.69519" lon="5.09832">
        <ele>236.14</ele>
        <time>2020-12-03T11:38:13Z</time>
      </trkpt>
      <trkpt lat="44.6954" lon="5.09827">
        <ele>235.66</ele>
        <time>2020-12-03T11:38:26Z</time>
      </trkpt>
      <trkpt lat="44.69543" lon="5.09825">
        <ele>235.18</ele>
        <time>2020-12-03T11:38:29Z</time>
      </trkpt>
      <trkpt lat="44.69552" lon="5.09823">
        <ele>234.7</ele>
        <time>2020-12-03T11:38:35Z</time>
      </trkpt>
      <trkpt lat="44.6957" lon="5.09817">
        <ele>234.22</ele>
        <time>2020-12-03T11:38:48Z</time>
      </trkpt>
      <trkpt lat="44.69587" lon="5.0981">
        <ele>236.14</ele>
        <time>2020-12-03T11:39:01Z</time>
      </trkpt>
      <trkpt lat="44.69606" lon="5.09805">
        <ele>236.14</ele>
        <time>2020-12-03T11:39:14Z</time>
      </trkpt>
      <trkpt lat="44.69623" lon="5.09801">
        <ele>234.22</ele>
        <time>2020-12-03T11:39:24Z</time>
      </trkpt>
      <trkpt lat="44.69629" lon="5.09799">
        <ele>234.7</ele>
        <time>2020-12-03T11:39:29Z</time>
      </trkpt>
      <trkpt lat="44.69636" lon="5.09799">
        <ele>234.22</ele>
        <time>2020-12-03T11:39:34Z</time>
      </trkpt>
      <trkpt lat="44.69662" lon="5.09789">
        <ele>232.78</ele>
        <time>2020-12-03T11:39:53Z</time>
      </trkpt>
      <trkpt lat="44.69683" lon="5.09783">
        <ele>232.3</ele>
        <time>2020-12-03T11:40:07Z</time>
      </trkpt>
      <trkpt lat="44.69703" lon="5.09785">
        <ele>232.3</ele>
        <time>2020-12-03T11:40:22Z</time>
      </trkpt>
      <trkpt lat="44.69721" lon="5.09782">
        <ele>235.18</ele>
        <time>2020-12-03T11:40:36Z</time>
      </trkpt>
      <trkpt lat="44.69744" lon="5.09772">
        <ele>235.66</ele>
        <time>2020-12-03T11:40:51Z</time>
      </trkpt>
      <trkpt lat="44.69753" lon="5.0977">
        <ele>235.66</ele>
        <time>2020-12-03T11:40:57Z</time>
      </trkpt>
      <trkpt lat="44.69758" lon="5.09767">
        <ele>236.14</ele>
        <time>2020-12-03T11:41:03Z</time>
      </trkpt>
      <trkpt lat="44.69776" lon="5.09771">
        <ele>237.1</ele>
        <time>2020-12-03T11:41:18Z</time>
      </trkpt>
      <trkpt lat="44.69797" lon="5.09776">
        <ele>236.14</ele>
        <time>2020-12-03T11:41:31Z</time>
      </trkpt>
      <trkpt lat="44.698" lon="5.09777">
        <ele>235.66</ele>
        <time>2020-12-03T11:41:34Z</time>
      </trkpt>
      <trkpt lat="44.69814" lon="5.09796">
        <ele>234.22</ele>
        <time>2020-12-03T11:41:47Z</time>
      </trkpt>
      <trkpt lat="44.69814" lon="5.0981">
        <ele>234.7</ele>
        <time>2020-12-03T11:41:55Z</time>
      </trkpt>
      <trkpt lat="44.69816" lon="5.09812">
        <ele>235.18</ele>
        <time>2020-12-03T11:41:58Z</time>
      </trkpt>
      <trkpt lat="44.69821" lon="5.09812">
        <ele>233.74</ele>
        <time>2020-12-03T11:42:12Z</time>
      </trkpt>
      <trkpt lat="44.69823" lon="5.09811">
        <ele>233.74</ele>
        <time>2020-12-03T11:42:18Z</time>
      </trkpt>
    </trkseg>
  </trk>
</gpx>